October 1, 2022
Temp
 
66.3 °F
 
Dew Pt.
 
58.9 °F
 
Humidity
 
77%
 
Pressure
 
1011.0 hPa 
  rising slowly
Wind
 
0.0 mph 
    SW
Rain
 
0.00 in 
  0.00 in/hr
UV index
 
---  
 
Solar rad.
 
100 W/m²
 
Today

Today: Patchy drizzle and fog before noon.  Cloudy through mid morning, then gradual clearing, with a high near 85. Calm wind becoming southwest around 5 mph in the afternoon.
Patchy
Drizzle and
Patchy Fog
then Sunny
Tonight

Tonight: Patchy fog after midnight.  Otherwise, increasing clouds, with a low around 59. Southwest wind around 5 mph becoming calm  in the evening.
Clear then
Patchy Fog

Hi 85 °F Lo 59 °F
MAP MAG LOCAL DATETIME
y/m/d h:m:s
LAT
deg
LON
deg
DEPTH
km
LOCATION
map1.02022/10/01 08:32:4438.822N122.787W1.74 6 km ( 3 mi) W of Cobb, CA
map0.92022/10/01 08:15:1538.832N122.813W2.46 8 km ( 5 mi) NW of The Geysers, CA
map0.92022/10/01 07:56:2638.830N122.813W1.93 8 km ( 5 mi) NW of The Geysers, CA
map1.62022/10/01 07:26:1839.496N123.312W8.22 9 km ( 5 mi) NE of Brooktrails, CA
map1.52022/10/01 06:33:0836.102N117.569W-0.31 35 km (22 mi) E of Coso Junction, CA
map0.92022/10/01 06:23:3033.285N116.139W10.33 16 km (10 mi) N of Ocotillo Wells, CA
map0.92022/10/01 06:18:5838.835N122.801W2.15 7 km ( 4 mi) WNW of Cobb, CA
map0.82022/10/01 04:25:3733.489N116.480W11.78 19 km (12 mi) ESE of Anza, CA
map1.02022/10/01 04:09:2634.013N116.767W14.01 11 km ( 7 mi) N of Cabazon, CA
map0.82022/10/01 03:54:4733.961N117.405W11.1 2 km ( 1 mi) NNW of Riverside, CA
map1.42022/10/01 03:49:5636.176N118.033W5.28 12 km ( 7 mi) SSW of Olancha, CA
map0.52022/10/01 03:39:5633.493N116.499W9.67 18 km (11 mi) ESE of Anza, CA
map0.82022/10/01 03:27:5533.805N117.629W4.99 9 km ( 6 mi) SW of Corona, CA
map1.52022/10/01 02:33:0533.919N116.779W18.01 1 km ( 0 mi) E of Cabazon, CA
map1.42022/10/01 02:28:3838.133N118.006W4.1 68 km (42 mi) W of Tonopah, NV
map0.82022/10/01 02:28:0234.052N117.242W12.94 2 km ( 1 mi) ENE of Loma Linda, CA
map2.02022/10/01 02:22:5233.205N115.536W3.51 4 km ( 3 mi) SSW of Niland, CA
map0.72022/10/01 01:42:4038.834N122.816W1.8 8 km ( 5 mi) NW of The Geysers, CA
map1.52022/10/01 01:31:4239.419N122.993W2.94 25 km (16 mi) NE of Redwood Valley, CA
map1.02022/10/01 01:28:0838.824N122.785W0.3 5 km ( 3 mi) W of Cobb, CA
map2.72022/10/01 00:14:4540.460N121.558W1.86 28 km (18 mi) E of Shingletown, CA
map1.02022/09/30 23:51:2635.663N117.505W9.41 15 km ( 9 mi) SW of Searles Valley, CA
map0.62022/09/30 23:47:1133.488N116.504W8.7 17 km (11 mi) ESE of Anza, CA
map0.42022/09/30 23:46:2438.843N122.842W1.84 10 km ( 6 mi) NW of The Geysers, CA
map0.92022/09/30 23:19:3534.044N117.200W12.55 2 km ( 1 mi) SW of Redlands, CA
map2.02022/09/30 23:03:3736.102N120.680W2.42 29 km (18 mi) W of Coalinga, CA
map1.22022/09/30 22:52:5134.194N116.819W5.96 8 km ( 5 mi) SSE of Big Bear City, CA
map0.82022/09/30 22:51:0438.823N122.810W1.76 7 km ( 4 mi) NW of The Geysers, CA
map0.42022/09/30 22:42:0738.805N122.810W6.01 6 km ( 3 mi) NW of The Geysers, CA
map1.12022/09/30 22:36:1133.490N116.507W9.12 17 km (11 mi) ESE of Anza, CA
map0.22022/09/30 22:29:3237.632N119.032W-2.14 5 km ( 3 mi) W of Mammoth Lakes, CA
map0.42022/09/30 22:29:2038.849N122.842W1.9 11 km ( 7 mi) WNW of Cobb, CA
map1.62022/09/30 21:48:0040.423N121.279W7.92 14 km ( 8 mi) NNW of Chester, CA
map2.32022/09/30 21:41:2337.278N118.326W8.24 11 km ( 7 mi) SSE of Bishop, CA
map1.32022/09/30 21:30:4934.660N116.337W2.26 18 km (11 mi) WSW of Ludlow, CA
map0.02022/09/30 21:24:1836.736N115.950W0.6 59 km (37 mi) N of Pahrump, NV
map2.02022/09/30 21:17:2735.689N117.533W6.58 15 km ( 9 mi) SW of Searles Valley, CA
map1.32022/09/30 21:06:5034.187N118.492W12.54 3 km ( 2 mi) NNE of Encino, CA
map0.92022/09/30 21:01:5838.835N122.816W1.59 8 km ( 5 mi) W of Cobb, CA
map0.92022/09/30 20:51:5338.835N122.815W1.51 8 km ( 5 mi) W of Cobb, CA
map1.32022/09/30 20:28:3037.104N117.031W7.3 33 km (20 mi) NW of Beatty, NV
map0.22022/09/30 20:26:0237.623N118.882W1 9 km ( 5 mi) E of Mammoth Lakes, CA
map0.62022/09/30 20:23:3636.003N120.564W2.98 17 km (10 mi) NW of Parkfield, CA
map0.82022/09/30 20:16:1138.834N122.880W1.98 12 km ( 8 mi) ENE of Cloverdale, CA
map1.82022/09/30 20:12:0439.495N123.317W8.65 8 km ( 5 mi) NE of Brooktrails, CA
map1.02022/09/30 20:02:0936.993N121.360W7.17 17 km (10 mi) NNE of Hollister, CA
map1.72022/09/30 19:25:3536.457N121.049W7.48 23 km (14 mi) NE of Greenfield, CA
map1.62022/09/30 18:20:0638.783N122.460W-0.48 9 km ( 6 mi) ESE of Hidden Valley Lake, CA
map1.72022/09/30 17:42:1635.047N119.001W10.5 13 km ( 8 mi) NNW of Grapevine, CA
map0.82022/09/30 17:08:3433.992N116.690W15.01 12 km ( 7 mi) WSW of Morongo Valley, CA
map0.82022/09/30 16:49:0033.489N116.506W11.3 17 km (11 mi) ESE of Anza, CA
map0.72022/09/30 16:48:2433.886N116.874W16.27 4 km ( 3 mi) S of Banning, CA
map1.32022/09/30 15:54:3933.485N116.503W9.83 18 km (11 mi) ESE of Anza, CA
map1.82022/09/30 15:35:2837.504N121.623W7.7 22 km (14 mi) NE of East Foothills, CA
map0.42022/09/30 15:30:1238.834N122.810W2.46 8 km ( 5 mi) W of Cobb, CA
map0.82022/09/30 15:09:2738.575N118.357W14.7 24 km (15 mi) ENE of Hawthorne, NV
map1.42022/09/30 15:05:1734.017N117.226W19.41 5 km ( 3 mi) SE of Loma Linda, CA
map0.62022/09/30 15:04:0033.663N116.737W13.74 9 km ( 5 mi) S of Idyllwild, CA
map0.62022/09/30 14:38:0033.489N116.499W10.58 18 km (11 mi) ESE of Anza, CA
map0.22022/09/30 13:53:2238.796N122.757W2.39 2 km ( 1 mi) N of The Geysers, CA
map0.42022/09/30 13:49:5933.489N116.505W11.53 17 km (11 mi) ESE of Anza, CA
map0.72022/09/30 13:49:2233.491N116.498W10.52 18 km (11 mi) ESE of Anza, CA
map0.82022/09/30 12:47:5333.245N116.012W5.15 8 km ( 5 mi) SW of Salton City, CA
map1.82022/09/30 12:40:5037.001N119.819W-0.39117 km (72 mi) SSE of Quarry near Yosemite Junction, CA(Probable quarry explosion)
map0.92022/09/30 12:39:1838.825N122.811W1.46 7 km ( 4 mi) NW of The Geysers, CA
map1.42022/09/30 12:36:0837.243N119.100W14.05 39 km (24 mi) ENE of Auberry, CA
map0.22022/09/30 12:16:4238.825N122.765W2.69 4 km ( 2 mi) W of Cobb, CA
map1.02022/09/30 12:08:2634.184N117.922W-0.91 23 km (14 mi) NNW of Quarry at POMONA (Probable quarry explosion)
map1.42022/09/30 12:05:4535.061N118.331W-1.01 2 km ( 1 mi) NW of Quarry at MOJAVE (Probable quarry explosion)
map0.62022/09/30 12:04:5533.465N116.432W7.6 24 km (15 mi) NNW of Borrego Springs, CA
map0.92022/09/30 11:46:0238.790N122.726W2.01 3 km ( 2 mi) ENE of The Geysers, CA
map1.42022/09/30 11:43:1937.444N118.615W12.02 17 km (11 mi) WNW of West Bishop, CA
map0.92022/09/30 11:40:3437.506N121.623W8.15 22 km (14 mi) NE of East Foothills, CA
map0.72022/09/30 11:08:0539.230N120.495W8.6 29 km (18 mi) WSW of Truckee, CA
map1.52022/09/30 11:06:3036.315N120.892W7.66 24 km (15 mi) ENE of King City, CA
map0.72022/09/30 10:52:5133.490N116.500W10.68 18 km (11 mi) ESE of Anza, CA
map-0.32022/09/30 10:50:0137.186N116.774W9.8 31 km (19 mi) N of Beatty, NV
map1.22022/09/30 10:39:2438.806N122.814W3.49 6 km ( 4 mi) WNW of The Geysers, CA
map1.52022/09/30 10:38:4938.809N122.814W3.46 6 km ( 4 mi) NW of The Geysers, CA
map1.12022/09/30 10:32:3433.488N116.498W10.32 18 km (11 mi) ESE of Anza, CA
map0.72022/09/30 10:10:4535.873N117.671W7.35 22 km (14 mi) ESE of Little Lake, CA
map0.62022/09/30 10:06:5338.808N122.813W3.09 6 km ( 4 mi) NW of The Geysers, CA
map0.92022/09/30 10:06:4538.807N122.814W3.52 6 km ( 4 mi) WNW of The Geysers, CA
map1.12022/09/30 10:06:1838.807N122.813W3.28 6 km ( 4 mi) NW of The Geysers, CA
map0.92022/09/30 09:56:1633.468N116.433W6.52 24 km (15 mi) NNW of Borrego Springs, CA
map1.22022/09/30 09:22:2037.576N118.484W8.57 22 km (14 mi) NNW of Dixon Lane-Meadow Creek, CA
map0.92022/09/30 09:21:2735.645N118.317W7.7 14 km ( 9 mi) ESE of Wofford Heights, CA
map1.92022/09/30 08:49:4134.370N116.892W3.74 11 km ( 7 mi) SE of Lucerne Valley, CA
map0.22022/09/30 08:26:1338.797N122.751W1.65 2 km ( 1 mi) NNE of The Geysers, CA
map1.42022/09/30 08:24:3335.769N117.581W7 16 km (10 mi) W of Searles Valley, CA
map0.52022/09/30 08:17:0333.503N116.498W14.09 17 km (11 mi) ESE of Anza, CA
map0.32022/09/30 08:01:2038.828N122.802W1.87 7 km ( 4 mi) W of Cobb, CA
map1.02022/09/30 08:01:0433.487N116.498W10.08 18 km (11 mi) ESE of Anza, CA
map0.92022/09/30 08:00:3933.488N116.500W10.46 18 km (11 mi) ESE of Anza, CA
map0.92022/09/30 08:00:2533.488N116.497W10 18 km (11 mi) ESE of Anza, CA
map0.62022/09/30 07:58:2833.490N116.499W10.72 18 km (11 mi) ESE of Anza, CA
map0.52022/09/30 07:58:1838.808N122.747W-0.89 3 km ( 2 mi) SW of Cobb, CA
map0.42022/09/30 07:55:1033.490N116.504W10.24 17 km (11 mi) ESE of Anza, CA
map0.92022/09/30 07:46:3938.834N122.815W1.72 8 km ( 5 mi) W of Cobb, CA
map1.22022/09/30 07:43:2738.821N122.765W1.93 4 km ( 2 mi) W of Cobb, CA
map0.32022/09/30 07:31:3038.834N122.807W1.94 7 km ( 5 mi) W of Cobb, CA
map1.62022/09/30 07:25:2735.610N117.594W4.61 8 km ( 5 mi) E of Ridgecrest, CA
map1.42022/09/30 07:23:1333.700N116.714W17.95 4 km ( 3 mi) S of Idyllwild, CA
map0.52022/09/30 07:12:3238.822N122.932W5.6 8 km ( 5 mi) ENE of Cloverdale, CA
map1.22022/09/30 06:49:4233.693N116.715W18.23 5 km ( 3 mi) S of Idyllwild, CA
map0.82022/09/30 06:45:4433.989N116.851W15.96 7 km ( 5 mi) NNE of Banning, CA
map0.42022/09/30 06:30:5633.712N116.781W15.46 7 km ( 4 mi) WSW of Idyllwild, CA
map0.82022/09/30 06:18:4338.822N122.843W2.28 9 km ( 6 mi) NW of The Geysers, CA
map0.12022/09/30 06:15:4438.760N122.729W1.55 3 km ( 2 mi) SE of The Geysers, CA
map1.22022/09/30 06:07:0141.354N122.194W7.37 11 km ( 7 mi) ENE of Mount Shasta, CA
map0.32022/09/30 05:46:2138.784N122.769W-0.3 1 km ( 1 mi) NW of The Geysers, CA
map0.62022/09/30 05:26:3233.489N116.504W11.26 17 km (11 mi) ESE of Anza, CA
map0.62022/09/30 05:25:1233.489N116.496W10.07 18 km (11 mi) ESE of Anza, CA
map0.92022/09/30 05:21:2138.833N122.816W1.82 8 km ( 5 mi) NW of The Geysers, CA
map0.52022/09/30 05:18:4133.488N116.501W10.21 18 km (11 mi) ESE of Anza, CA
map0.42022/09/30 05:18:2833.490N116.500W10.92 18 km (11 mi) ESE of Anza, CA
map0.62022/09/30 05:18:2033.489N116.501W10.26 18 km (11 mi) ESE of Anza, CA
map0.72022/09/30 05:17:5333.488N116.504W10.93 17 km (11 mi) ESE of Anza, CA
map0.52022/09/30 05:12:1833.492N116.488W11.78 19 km (12 mi) ESE of Anza, CA
map0.42022/09/30 05:10:3733.490N116.494W10.62 18 km (11 mi) ESE of Anza, CA
map0.72022/09/30 05:10:1933.490N116.505W10.46 17 km (11 mi) ESE of Anza, CA
map0.82022/09/30 05:07:5333.490N116.502W10.88 17 km (11 mi) ESE of Anza, CA
map1.22022/09/30 05:07:0738.154N117.904W6.2 60 km (37 mi) W of Tonopah, NV
map1.32022/09/30 05:03:4737.157N121.544W6.33 10 km ( 6 mi) NE of San Martin, CA
map0.82022/09/30 05:03:0133.488N116.502W9.96 18 km (11 mi) ESE of Anza, CA
map0.92022/09/30 04:59:5333.491N116.505W10.43 17 km (11 mi) ESE of Anza, CA
map1.82022/09/30 04:56:4233.484N116.509W9.77 17 km (11 mi) ESE of Anza, CA
map1.12022/09/30 04:56:2033.489N116.501W9.96 18 km (11 mi) ESE of Anza, CA
map0.52022/09/30 04:55:4133.489N116.497W10.25 18 km (11 mi) ESE of Anza, CA
map0.52022/09/30 04:55:2138.821N122.767W1.49 4 km ( 2 mi) W of Cobb, CA
map0.52022/09/30 04:55:0033.488N116.498W10.88 18 km (11 mi) ESE of Anza, CA
map0.52022/09/30 04:54:2933.492N116.499W10.26 18 km (11 mi) ESE of Anza, CA
map0.52022/09/30 04:52:5033.486N116.498W10.88 18 km (11 mi) ESE of Anza, CA
map0.72022/09/30 04:52:1633.488N116.500W10.29 18 km (11 mi) ESE of Anza, CA
map1.02022/09/30 04:52:1233.491N116.501W9.88 17 km (11 mi) ESE of Anza, CA
map0.92022/09/30 04:52:0933.489N116.500W10.32 18 km (11 mi) ESE of Anza, CA
map1.02022/09/30 04:51:4133.491N116.503W10.15 17 km (11 mi) ESE of Anza, CA
MAP3.42022/09/30 04:50:1133.480N116.513W9.3 17 km (11 mi) ESE of Anza, CA
map2.32022/09/30 04:48:3333.484N116.511W9.21 17 km (11 mi) ESE of Anza, CA
map1.32022/09/30 04:44:2838.248N118.365W8.0 38 km (24 mi) SE of Hawthorne, NV
map0.72022/09/30 04:29:3333.993N117.170W16.83 7 km ( 4 mi) S of Redlands, CA
map1.12022/09/30 04:29:2333.032N116.001W9.35 17 km (11 mi) SE of Ocotillo Wells, CA
map1.22022/09/30 04:21:5438.819N122.765W2.06 4 km ( 2 mi) W of Cobb, CA
map0.92022/09/30 03:59:5535.885N117.821W8.56 10 km ( 6 mi) SE of Little Lake, CA
map0.42022/09/30 03:41:2038.823N122.754W3.62 3 km ( 2 mi) W of Cobb, CA
map0.72022/09/30 03:39:3138.823N122.765W2.37 4 km ( 2 mi) W of Cobb, CA
map0.92022/09/30 03:39:1938.820N122.766W2.12 4 km ( 2 mi) W of Cobb, CA
map0.72022/09/30 03:39:1038.818N122.765W1.9 4 km ( 2 mi) W of Cobb, CA
map2.22022/09/30 03:38:4138.818N122.766W1.57 4 km ( 2 mi) W of Cobb, CA
map1.02022/09/30 03:20:2833.639N116.815W18.96 14 km ( 9 mi) SSE of Valle Vista, CA
map1.02022/09/30 03:20:1138.150N117.902W8.0 59 km (37 mi) W of Tonopah, NV
map1.62022/09/30 02:37:1634.193N116.825W7.49 8 km ( 5 mi) SSE of Big Bear City, CA
map1.22022/09/30 02:28:5038.819N122.799W2.77 6 km ( 4 mi) NW of The Geysers, CA
map1.12022/09/30 02:12:4237.334N122.201W8.07 6 km ( 4 mi) SSE of Portola Valley, CA
map1.52022/09/30 02:11:1237.331N122.200W8.66 7 km ( 4 mi) SSE of Portola Valley, CA
map-0.12022/09/30 02:02:3839.399N120.264W10.5 11 km ( 7 mi) NW of Truckee, CA
map1.52022/09/30 01:54:4535.973N117.384W2.71 23 km (14 mi) N of Searles Valley, CA
map0.22022/09/30 01:24:5837.566N118.929W7.71 9 km ( 6 mi) SSE of Mammoth Lakes, CA
map0.32022/09/30 01:19:3037.566N118.930W7.91 9 km ( 6 mi) SSE of Mammoth Lakes, CA
map-0.12022/09/30 01:16:5239.323N120.004W8.8 8 km ( 5 mi) NNW of Incline Village, NV
map0.72022/09/30 01:12:5536.031N120.603W-0.6 21 km (13 mi) NW of Parkfield, CA
map0.62022/09/30 01:11:3533.647N116.713W12.83 10 km ( 6 mi) S of Idyllwild, CA
map0.52022/09/30 00:59:3638.575N119.436W6.9 25 km (15 mi) SSW of Smith Valley, NV
map0.92022/09/30 00:53:5538.836N122.810W2.3 8 km ( 5 mi) WNW of Cobb, CA
map0.52022/09/30 00:46:1933.383N116.353W5.06 14 km ( 9 mi) N of Borrego Springs, CA
map0.32022/09/30 00:22:0233.646N116.707W12.45 11 km ( 7 mi) S of Idyllwild, CA
map0.92022/09/29 23:37:0735.398N117.822W9.11 17 km (11 mi) W of Johannesburg, CA
map1.22022/09/29 23:19:1633.756N117.530W7.39 12 km ( 7 mi) NNE of Trabuco Canyon, CA
map2.52022/09/29 23:07:2634.061N116.955W13.24 9 km ( 5 mi) ENE of Yucaipa, CA
map0.92022/09/29 21:59:5738.839N122.797W2.01 7 km ( 4 mi) WNW of Cobb, CA
map0.42022/09/29 21:50:0237.495N118.850W5.03 19 km (12 mi) SE of Mammoth Lakes, CA
map1.72022/09/29 21:27:1636.165N118.025W1.81 13 km ( 8 mi) S of Olancha, CA
map-0.12022/09/29 21:13:2736.998N116.287W5.7 43 km (27 mi) ENE of Beatty, NV
map1.12022/09/29 20:50:1933.507N116.457W5.99 21 km (13 mi) ESE of Anza, CA
map2.52022/09/29 20:06:0636.248N115.150W11.9 2 km ( 1 mi) N of North Las Vegas, NV
map0.42022/09/29 19:24:2837.361N117.165W0.0 62 km (39 mi) NW of Beatty, NV
map0.72022/09/29 18:59:2333.224N116.180W10.42 10 km ( 6 mi) NNW of Ocotillo Wells, CA
map1.62022/09/29 18:46:1136.548N121.140W7.11 22 km (13 mi) NE of Soledad, CA
map0.52022/09/29 18:36:5238.811N122.773W0.37 4 km ( 2 mi) NNW of The Geysers, CA
map0.82022/09/29 18:28:3133.963N116.690W13.86 10 km ( 6 mi) ENE of Cabazon, CA
map1.92022/09/29 17:40:2137.756N121.629W-0.13 8 km ( 5 mi) WSW of Mountain House, CA
map1.42022/09/29 17:20:2838.101N118.213W6.5 59 km (37 mi) SE of Hawthorne, NV
map0.42022/09/29 16:34:1833.447N116.634W4.62 13 km ( 8 mi) SSE of Anza, CA
map1.02022/09/29 16:27:2134.204N117.603W7.34 9 km ( 6 mi) NNW of Rancho Cucamonga, CA
map0.92022/09/29 16:26:4937.417N121.761W8.4 6 km ( 4 mi) NE of East Foothills, CA
map0.92022/09/29 16:19:2638.835N122.819W1.44 8 km ( 5 mi) NW of The Geysers, CA
map2.22022/09/29 15:45:4936.549N121.141W6.97 22 km (13 mi) NE of Soledad, CA
map0.72022/09/29 15:37:5538.800N122.755W3.88 3 km ( 2 mi) N of The Geysers, CA
map0.32022/09/29 15:34:1538.814N122.795W2.29 5 km ( 3 mi) NW of The Geysers, CA
map0.82022/09/29 15:00:3237.551N118.794W10.14 19 km (12 mi) ESE of Mammoth Lakes, CA
map0.82022/09/29 14:41:2538.833N122.810W2.48 8 km ( 5 mi) W of Cobb, CA
map0.32022/09/29 14:39:0538.838N122.801W2.34 7 km ( 4 mi) WNW of Cobb, CA
map0.92022/09/29 14:38:2538.836N122.800W2.31 7 km ( 4 mi) WNW of Cobb, CA
map2.32022/09/29 14:18:5840.159N120.205W9.89 31 km (19 mi) ESE of Janesville, CA
map0.72022/09/29 14:09:4940.228N119.626W14.2 65 km (40 mi) N of Spanish Springs, NV
map1.32022/09/29 14:09:4338.784N122.766W3.01 1 km ( 1 mi) NW of The Geysers, CA
map1.52022/09/29 13:00:1735.431N120.572W-0.36 0 km ( 0 mi) N of Quarry near Santa Margarita, CA(Probable quarry explosion)
map1.92022/09/29 13:00:0234.039N117.246W16.01 2 km ( 1 mi) SE of Loma Linda, CA
map0.82022/09/29 12:37:1634.016N117.224W15.98 5 km ( 3 mi) SE of Loma Linda, CA
map2.32022/09/29 12:36:5837.298N120.009W22.29 21 km (13 mi) S of Mariposa, CA
map1.02022/09/29 12:24:4236.719N121.362W3.24 10 km ( 6 mi) S of Ridgemark, CA
map0.12022/09/29 12:06:3435.879N117.650W10.62 24 km (15 mi) ESE of Little Lake, CA
map1.42022/09/29 11:39:4938.136N117.960W6.4 64 km (40 mi) W of Tonopah, NV
map1.52022/09/29 11:38:4432.597N117.001W-0.34 3 km ( 2 mi) WSW of Quarry at SYS-1 (Probable quarry explosion)
map2.02022/09/29 11:35:1037.808N119.015W2.24 19 km (12 mi) N of Mammoth Lakes, CA
map0.52022/09/29 11:32:5738.777N122.728W1.51 2 km ( 2 mi) E of The Geysers, CA
map1.02022/09/29 11:29:5835.871N117.711W10.85 19 km (12 mi) ESE of Little Lake, CA
map0.32022/09/29 10:59:5238.819N122.765W1.69 4 km ( 2 mi) W of Cobb, CA
map1.22022/09/29 10:44:4738.468N118.163W15.2 41 km (25 mi) E of Hawthorne, NV
map0.92022/09/29 10:36:5837.498N121.621W6.48 22 km (13 mi) NE of East Foothills, CA
map0.32022/09/29 10:25:3233.353N116.397W11.88 11 km ( 7 mi) N of Borrego Springs, CA
map0.92022/09/29 10:25:2033.352N116.406W10.78 11 km ( 7 mi) NNW of Borrego Springs, CA
map0.72022/09/29 10:17:3538.778N122.727W1.52 3 km ( 2 mi) E of The Geysers, CA
map0.52022/09/29 10:11:5433.498N116.785W7.3 10 km ( 6 mi) NE of Aguanga, CA
map0.52022/09/29 10:10:2233.510N116.544W13.34 13 km ( 8 mi) ESE of Anza, CA
map1.02022/09/29 09:59:1233.505N116.549W13.38 13 km ( 8 mi) ESE of Anza, CA
map1.12022/09/29 09:46:0438.776N122.726W1.74 3 km ( 2 mi) E of The Geysers, CA
map1.42022/09/29 09:34:1940.215N121.081W3.22 14 km ( 9 mi) NW of Greenville, CA
map0.92022/09/29 09:22:4936.609N121.226W2.5 22 km (14 mi) NNE of Soledad, CA
map0.62022/09/29 09:04:1938.790N122.761W1.76 1 km ( 1 mi) NNW of The Geysers, CA
map0.92022/09/29 08:39:4638.834N122.818W1.93 8 km ( 5 mi) NW of The Geysers, CA
map1.22022/09/29 08:22:5038.833N122.817W2.09 8 km ( 5 mi) NW of The Geysers, CA
map0.62022/09/29 08:19:3038.833N122.804W2.53 7 km ( 4 mi) W of Cobb, CA
map0.82022/09/29 08:08:2433.910N117.047W13.71 7 km ( 4 mi) WSW of Beaumont, CA
map1.32022/09/29 08:00:0635.733N117.550W10.78 14 km ( 9 mi) WSW of Searles Valley, CA
map0.32022/09/29 07:32:2239.694N119.831W10.0 7 km ( 4 mi) N of Lemmon Valley, NV
map1.82022/09/29 07:22:3038.175N117.846W8.9 55 km (34 mi) WNW of Tonopah, NV
map1.02022/09/29 07:12:1936.164N118.035W1.66 13 km ( 8 mi) SSW of Olancha, CA
map1.42022/09/29 07:11:5636.168N118.025W1.94 13 km ( 8 mi) S of Olancha, CA
map1.52022/09/29 06:57:5138.780N122.713W2.06 4 km ( 2 mi) E of The Geysers, CA
map0.42022/09/29 06:54:2338.836N122.809W2.25 8 km ( 5 mi) WNW of Cobb, CA
map0.92022/09/29 06:45:4138.846N122.818W1.86 9 km ( 5 mi) WNW of Cobb, CA
map1.52022/09/29 06:42:4538.844N122.815W1.63 8 km ( 5 mi) WNW of Cobb, CA
map1.22022/09/29 06:40:1438.845N122.818W0.87 9 km ( 5 mi) WNW of Cobb, CA
map0.72022/09/29 06:39:1438.845N122.817W0.9 8 km ( 5 mi) WNW of Cobb, CA
map0.92022/09/29 06:37:0033.219N116.726W10.54 4 km ( 3 mi) SE of Lake Henshaw, CA
map1.22022/09/29 06:26:1938.824N122.855W2.62 10 km ( 6 mi) WNW of The Geysers, CA
map0.92022/09/29 06:24:3533.597N116.730W12.4 7 km ( 4 mi) NW of Anza, CA
map0.12022/09/29 06:18:2538.566N119.464W9.4 26 km (16 mi) SSW of Smith Valley, NV
map0.72022/09/29 06:11:5332.935N116.226W10.66 25 km (15 mi) SSW of Ocotillo Wells, CA
map0.52022/09/29 05:59:5433.600N116.730W12.37 7 km ( 5 mi) NW of Anza, CA
map0.32022/09/29 05:59:4833.599N116.731W12.46 7 km ( 4 mi) NW of Anza, CA
map0.42022/09/29 05:55:4338.840N122.841W2.75 10 km ( 6 mi) NW of The Geysers, CA
map1.02022/09/29 05:18:3638.838N122.836W1.81 10 km ( 6 mi) NW of The Geysers, CA
map0.92022/09/29 05:14:3038.839N122.836W1.48 10 km ( 6 mi) NW of The Geysers, CA
map0.92022/09/29 05:13:3738.839N122.835W2 10 km ( 6 mi) NW of The Geysers, CA
map1.42022/09/29 05:08:1332.821N117.449W15.61 17 km (10 mi) W of La Jolla, CA
map1.22022/09/29 04:57:2438.749N117.942W4.6 64 km (40 mi) ENE of Hawthorne, NV
map0.82022/09/29 04:48:5534.133N117.006W13.3 12 km ( 7 mi) NNE of Yucaipa, CA
map0.92022/09/29 04:30:1538.828N122.821W1.76 8 km ( 5 mi) NW of The Geysers, CA
map0.02022/09/29 04:29:5939.690N119.820W10.3 6 km ( 4 mi) NNE of Lemmon Valley, NV
map1.52022/09/29 04:25:0934.575N119.527W-0.06 18 km (11 mi) NNE of Montecito, CA
map0.92022/09/29 04:07:3938.830N122.815W2.22 8 km ( 5 mi) NW of The Geysers, CA
map-0.52022/09/29 04:06:5536.804N116.080W5.8 61 km (38 mi) E of Beatty, NV
map0.42022/09/29 03:33:4533.498N116.791W6.16 9 km ( 6 mi) NE of Aguanga, CA
map0.12022/09/29 03:28:5836.801N116.079W4.8 61 km (38 mi) E of Beatty, NV
map0.62022/09/29 03:04:1733.102N116.615W15.28 3 km ( 2 mi) NNW of Julian, CA
map1.02022/09/29 03:02:0733.096N116.626W13.76 3 km ( 2 mi) NW of Julian, CA
map1.32022/09/29 02:57:0332.814N117.460W14.49 18 km (11 mi) WSW of La Jolla, CA
map1.52022/09/29 02:56:3133.093N116.632W13.09 3 km ( 2 mi) WNW of Julian, CA
map0.42022/09/29 02:39:3939.686N119.820W11.6 6 km ( 4 mi) NNE of Lemmon Valley, NV
map-0.32022/09/29 02:37:2836.693N116.118W4.2 55 km (34 mi) N of Pahrump, NV
map1.22022/09/29 02:37:0233.311N116.210W4.02 17 km (10 mi) ENE of Borrego Springs, CA
map0.52022/09/29 02:34:4538.217N118.287W9.8 45 km (28 mi) SE of Hawthorne, NV
map1.72022/09/29 02:33:3233.533N116.453W5.3 20 km (12 mi) SW of La Quinta, CA
map0.12022/09/29 01:49:1238.583N119.444W7.2 24 km (15 mi) SSW of Smith Valley, NV
map1.12022/09/29 01:18:2237.596N122.456W8.6 3 km ( 2 mi) SE of Pacifica, CA
map-0.12022/09/29 01:14:4736.795N116.078W6.3 62 km (38 mi) ESE of Beatty, NV
map1.72022/09/29 01:08:5433.306N116.246W11.07 13 km ( 8 mi) ENE of Borrego Springs, CA
map0.82022/09/29 00:36:1637.147N117.369W10.7 61 km (38 mi) WNW of Beatty, NV
map0.42022/09/29 00:16:4633.718N116.760W15.97 5 km ( 3 mi) WSW of Idyllwild, CA
map0.42022/09/29 00:11:5638.867N122.799W1.85 8 km ( 5 mi) NW of Cobb, CA
map0.82022/09/29 00:10:1037.501N121.623W7.5 22 km (14 mi) NE of East Foothills, CA
map1.52022/09/28 23:42:2336.164N118.027W1.93 13 km ( 8 mi) S of Olancha, CA
map1.32022/09/28 23:32:2633.235N115.962W4.66 7 km ( 4 mi) S of Salton City, CA
map0.92022/09/28 23:11:2037.495N118.850W5.39 19 km (12 mi) SE of Mammoth Lakes, CA
map0.62022/09/28 23:06:1635.707N117.499W8.77 11 km ( 7 mi) SW of Searles Valley, CA
map1.82022/09/28 22:58:1237.502N118.858W4.29 18 km (11 mi) SE of Mammoth Lakes, CA
map0.22022/09/28 22:56:0737.581N118.868W3.97 12 km ( 7 mi) ESE of Mammoth Lakes, CA
map0.02022/09/28 22:53:3039.374N120.135W9.6 7 km ( 4 mi) NE of Truckee, CA
map0.52022/09/28 22:49:4038.773N122.769W0.69 1 km ( 1 mi) WSW of The Geysers, CA
map1.22022/09/28 22:29:0535.641N117.467W4.99 15 km ( 9 mi) SSW of Searles Valley, CA
map1.22022/09/28 22:26:3438.837N122.807W1.92 7 km ( 5 mi) WNW of Cobb, CA
map0.62022/09/28 22:11:3339.683N120.479W9.7 14 km ( 9 mi) S of Portola, CA
map2.32022/09/28 21:49:2234.625N116.570W7.95 39 km (24 mi) WSW of Ludlow, CA
map1.12022/09/28 21:30:4837.469N121.826W4.59 8 km ( 5 mi) ENE of Milpitas, CA
map1.02022/09/28 21:30:2835.643N117.465W6.24 15 km ( 9 mi) SSW of Searles Valley, CA
map0.82022/09/28 21:30:1035.643N117.456W9.52 15 km ( 9 mi) SSW of Searles Valley, CA
map0.82022/09/28 21:29:4538.835N122.802W2.51 7 km ( 4 mi) WNW of Cobb, CA
map1.42022/09/28 21:10:4835.711N117.496W11.41 10 km ( 6 mi) SW of Searles Valley, CA
map0.92022/09/28 20:55:1938.789N122.761W2.59 1 km ( 1 mi) NNW of The Geysers, CA
map0.52022/09/28 20:42:1838.835N122.808W2.22 8 km ( 5 mi) W of Cobb, CA
map1.02022/09/28 20:25:1538.834N122.803W2.2 7 km ( 4 mi) W of Cobb, CA
map0.42022/09/28 20:03:3236.659N116.273W6.5 51 km (32 mi) ESE of Beatty, NV
map1.02022/09/28 20:01:3138.837N122.829W2.2 9 km ( 6 mi) NW of The Geysers, CA
MAP3.12022/09/28 20:00:1538.151N117.975W9.3 66 km (41 mi) W of Tonopah, NV
map0.92022/09/28 19:35:2235.752N117.484W11.2 7 km ( 5 mi) WSW of Searles Valley, CA
map1.62022/09/28 18:59:5138.941N117.884W1.7 79 km (49 mi) NE of Hawthorne, NV
map2.12022/09/28 18:43:3438.162N117.888W8.8 58 km (36 mi) W of Tonopah, NV
map1.02022/09/28 18:40:4334.121N117.471W7.21 3 km ( 2 mi) NNW of Fontana, CA
map1.42022/09/28 18:31:1833.196N116.031W7.98 11 km ( 7 mi) ENE of Ocotillo Wells, CA
map0.62022/09/28 18:27:1838.812N122.785W1.67 5 km ( 3 mi) NNW of The Geysers, CA
map0.82022/09/28 18:22:1638.824N122.803W-0.7 7 km ( 4 mi) NW of The Geysers, CA
map1.02022/09/28 18:18:1438.812N122.785W1.58 5 km ( 3 mi) NNW of The Geysers, CA
map0.82022/09/28 18:18:0835.747N118.018W7 22 km (13 mi) WNW of Inyokern, CA
map2.02022/09/28 18:04:1639.220N120.522W10.45 31 km (20 mi) WSW of Truckee, CA
map1.02022/09/28 18:03:1634.474N119.246W0.75 3 km ( 2 mi) N of Ojai, CA
map0.42022/09/28 17:29:5038.821N122.765W1.73 4 km ( 2 mi) W of Cobb, CA
map1.02022/09/28 17:13:1139.028N123.267W2.5 9 km ( 5 mi) ENE of Boonville, CA
map1.42022/09/28 16:40:1035.738N118.005W12.33 20 km (12 mi) WNW of Inyokern, CA
map1.72022/09/28 16:36:2235.043N117.655W-0.82 3 km ( 2 mi) ENE of Quarry at BORON (Probable quarry explosion)
map1.22022/09/28 16:18:2338.199N117.882W6.7 59 km (37 mi) WNW of Tonopah, NV
map1.22022/09/28 16:16:1738.834N122.805W2.3 7 km ( 4 mi) W of Cobb, CA
map0.72022/09/28 16:08:5138.798N122.750W2.03 2 km ( 1 mi) NNE of The Geysers, CA
map0.72022/09/28 16:05:2132.915N116.272W13.12 26 km (16 mi) ENE of Pine Valley, CA
map1.32022/09/28 15:44:0233.819N117.479W-0.64 4 km ( 2 mi) SSE of Quarry at CORONA (Probable quarry explosion)
map0.82022/09/28 15:21:5338.793N122.784W4.06 3 km ( 2 mi) NW of The Geysers, CA
map1.12022/09/28 15:14:3933.489N116.474W14.02 20 km (12 mi) ESE of Anza, CA
map1.22022/09/28 14:50:0638.821N122.752W-0.14 2 km ( 2 mi) W of Cobb, CA
map1.62022/09/28 14:49:1438.822N122.809W1.55 7 km ( 4 mi) NW of The Geysers, CA
map0.62022/09/28 14:36:0538.839N122.771W2.68 5 km ( 3 mi) WNW of Cobb, CA
map0.62022/09/28 14:31:3938.788N122.773W1.93 2 km ( 1 mi) NW of The Geysers, CA
map2.02022/09/28 14:28:0238.788N122.769W1.02 2 km ( 1 mi) NW of The Geysers, CA
map0.62022/09/28 14:22:0433.538N116.454W7.15 19 km (12 mi) SW of La Quinta, CA
map2.02022/09/28 14:19:4535.506N118.395W6.1 13 km ( 8 mi) SE of Bodfish, CA
map1.22022/09/28 14:09:2237.147N121.530W6.98 10 km ( 6 mi) NE of San Martin, CA
map2.42022/09/28 14:07:4337.416N118.376W3.74 5 km ( 3 mi) NE of Dixon Lane-Meadow Creek, CA
map1.72022/09/28 13:49:5235.637N120.999W3.3 11 km ( 7 mi) NE of Cambria, CA
map1.02022/09/28 13:32:3933.138N117.151W-0.18 1 km ( 1 mi) N of Quarry at E-VISTA (Probable quarry explosion)
map1.02022/09/28 13:03:0132.821N117.064W-0.1 3 km ( 2 mi) WSW of Quarry at CPE-3 (Probable quarry explosion)
map0.62022/09/28 13:01:4333.385N116.354W4.64 14 km ( 9 mi) N of Borrego Springs, CA
map0.22022/09/28 13:01:3733.667N116.718W16.5 8 km ( 5 mi) S of Idyllwild, CA
map0.62022/09/28 13:01:2633.668N116.716W16.3 8 km ( 5 mi) S of Idyllwild, CA
map0.42022/09/28 13:01:2333.659N116.712W15.28 9 km ( 6 mi) S of Idyllwild, CA
map1.32022/09/28 12:25:1137.386N122.164W5.94 2 km ( 2 mi) WNW of Los Altos Hills, CA
map1.02022/09/28 12:24:5333.015N116.422W7.25 18 km (11 mi) ESE of Julian, CA
map0.52022/09/28 12:13:4537.900N114.193W4.0 42 km (26 mi) NE of Caliente, NV
map1.02022/09/28 12:11:5738.826N122.764W1.86 4 km ( 2 mi) W of Cobb, CA
map1.12022/09/28 12:07:4338.832N122.818W1.63 8 km ( 5 mi) NW of The Geysers, CA
map0.92022/09/28 11:55:1738.835N122.818W1.48 8 km ( 5 mi) W of Cobb, CA
map0.42022/09/28 11:48:4038.832N122.812W2.06 8 km ( 5 mi) NW of The Geysers, CA
map1.32022/09/28 11:48:2439.580N119.093W8.9 14 km ( 9 mi) ESE of Fernley, NV
map1.82022/09/28 11:44:4937.386N122.163W6.24 2 km ( 1 mi) WNW of Los Altos Hills, CA
map-0.12022/09/28 11:21:2235.930N120.480W5.03 6 km ( 3 mi) NW of Parkfield, CA
map0.82022/09/28 11:15:1237.502N121.628W7.16 21 km (13 mi) NE of East Foothills, CA
map0.82022/09/28 10:43:2938.803N122.780W3.34 4 km ( 2 mi) NW of The Geysers, CA
map0.92022/09/28 10:17:2037.498N121.621W6.86 22 km (13 mi) NE of East Foothills, CA
map1.82022/09/28 10:04:4238.788N122.760W1.37 1 km ( 1 mi) NNW of The Geysers, CA
MAP3.42022/09/28 10:02:0237.500N121.621W7.61 22 km (14 mi) NE of East Foothills, CA
map0.92022/09/28 09:28:4636.855N121.596W7.67 5 km ( 3 mi) WNW of San Juan Bautista, CA
map1.12022/09/28 08:58:0233.920N117.853W12.76 4 km ( 3 mi) E of Brea, CA
map1.22022/09/28 08:55:4633.274N115.977W4.52 3 km ( 2 mi) SW of Salton City, CA
map2.32022/09/28 08:52:1038.594N119.447W4.42 23 km (14 mi) SSW of Smith Valley, NV
map1.12022/09/28 08:05:5838.840N122.839W1.76 10 km ( 6 mi) NW of The Geysers, CA
map1.02022/09/28 07:52:0637.492N118.846W4.75 20 km (12 mi) SE of Mammoth Lakes, CA
map1.22022/09/28 07:42:3938.824N122.844W1.9 9 km ( 6 mi) NW of The Geysers, CA
map0.52022/09/28 07:41:2838.823N122.844W2.18 9 km ( 6 mi) NW of The Geysers, CA
map1.42022/09/28 06:58:2538.823N122.807W2.9 7 km ( 4 mi) NW of The Geysers, CA
map0.82022/09/28 06:33:2935.681N117.472W10.59 11 km ( 7 mi) SSW of Searles Valley, CA
map-0.32022/09/28 05:40:2237.066N116.149W5.7 57 km (35 mi) ENE of Beatty, NV
map2.52022/09/28 04:50:2640.297N124.766W13.27 53 km (33 mi) SW of Ferndale, CA
map0.42022/09/28 04:20:1138.812N122.779W0.79 4 km ( 3 mi) NNW of The Geysers, CA
map0.72022/09/28 04:19:4533.320N116.335W11.5 8 km ( 5 mi) NNE of Borrego Springs, CA
map1.22022/09/28 04:17:4438.811N122.777W0.75 4 km ( 3 mi) NNW of The Geysers, CA
map1.22022/09/28 04:01:5136.613N121.216W4.77 23 km (14 mi) NNE of Soledad, CA
map0.62022/09/28 03:58:5233.977N116.853W19.17 6 km ( 4 mi) NNE of Banning, CA
map1.02022/09/28 03:47:5137.277N121.656W1.32 16 km (10 mi) E of Seven Trees, CA
map1.22022/09/28 03:00:2633.318N116.765W11.85 8 km ( 5 mi) N of Lake Henshaw, CA
map2.12022/09/28 02:58:5638.071N121.999W16.53 6 km ( 4 mi) NW of Bay Point, CA
map1.12022/09/28 02:53:4232.817N116.169W8.83 19 km (12 mi) WNW of Ocotillo, CA
map0.62022/09/28 02:42:4133.219N116.718W9.94 5 km ( 3 mi) ESE of Lake Henshaw, CA
map1.32022/09/28 02:38:2239.040N123.052W8.97 12 km ( 7 mi) W of Lakeport, CA
map0.92022/09/28 02:33:3238.822N122.855W3.01 10 km ( 6 mi) WNW of The Geysers, CA
map0.92022/09/28 02:19:2033.380N116.361W4.98 14 km ( 9 mi) N of Borrego Springs, CA
map0.62022/09/28 01:51:3333.711N116.740W16.14 4 km ( 2 mi) SSW of Idyllwild, CA
map0.02022/09/28 01:51:1833.625N116.668W13.45 8 km ( 5 mi) N of Anza, CA
map0.42022/09/28 01:51:1633.628N116.669W13.65 8 km ( 5 mi) N of Anza, CA
map0.42022/09/28 01:32:3633.572N116.558W9.04 11 km ( 7 mi) E of Anza, CA
map-0.32022/09/28 01:24:5236.745N116.264W5.3 47 km (29 mi) ESE of Beatty, NV
map0.22022/09/28 01:14:0637.568N118.792W5.17 18 km (11 mi) ESE of Mammoth Lakes, CA
map0.92022/09/28 00:59:3338.835N122.818W1.03 8 km ( 5 mi) W of Cobb, CA
map1.02022/09/28 00:52:0934.687N118.472W10.59 3 km ( 2 mi) WNW of Lake Hughes, CA
map0.82022/09/27 23:56:5133.681N116.735W15.5 7 km ( 4 mi) SSW of Idyllwild, CA
map0.92022/09/27 23:52:4537.279N121.656W1.82 16 km (10 mi) E of Seven Trees, CA
map0.72022/09/27 23:51:3933.691N116.739W15.34 6 km ( 4 mi) SSW of Idyllwild, CA
map1.32022/09/27 23:49:1336.606N121.204W6.8 23 km (14 mi) NNE of Soledad, CA
map0.12022/09/27 23:46:0438.825N122.809W1.63 7 km ( 4 mi) NW of The Geysers, CA
map0.72022/09/27 23:41:4133.708N116.820W14.38 8 km ( 5 mi) ESE of Valle Vista, CA
map2.02022/09/27 23:32:3036.606N121.206W6.61 23 km (14 mi) NNE of Soledad, CA
map1.02022/09/27 22:56:0838.145N117.880W11.0 57 km (36 mi) W of Tonopah, NV
map0.82022/09/27 22:30:2034.273N117.052W2.92 9 km ( 6 mi) NE of Running Springs, CA
map1.92022/09/27 22:21:0439.583N119.096W8.4 14 km ( 8 mi) ESE of Fernley, NV
map0.62022/09/27 22:20:1738.790N122.763W2.04 2 km ( 1 mi) NNW of The Geysers, CA
map0.62022/09/27 21:47:4138.819N122.760W1.85 3 km ( 2 mi) W of Cobb, CA
map1.32022/09/27 21:46:5034.472N119.252W1.77 3 km ( 2 mi) NNW of Ojai, CA
map0.42022/09/27 21:43:4138.820N122.762W2.27 3 km ( 2 mi) W of Cobb, CA
map1.22022/09/27 21:38:1333.149N116.519W8.89 11 km ( 7 mi) NE of Julian, CA
map0.32022/09/27 21:36:1538.822N122.793W3.07 6 km ( 4 mi) NNW of The Geysers, CA
map0.92022/09/27 21:33:2738.831N122.816W1.85 8 km ( 5 mi) NW of The Geysers, CA
map0.02022/09/27 21:29:4037.095N115.751W0.0 60 km (37 mi) WSW of Alamo, NV
map0.62022/09/27 21:23:3533.464N116.435W6.63 24 km (15 mi) NNW of Borrego Springs, CA
map0.62022/09/27 21:23:3333.466N116.434W6.93 24 km (15 mi) NNW of Borrego Springs, CA
map0.52022/09/27 21:23:1733.468N116.431W7.66 24 km (15 mi) NNW of Borrego Springs, CA
map1.02022/09/27 20:56:3334.145N117.620W5.61 4 km ( 3 mi) WNW of Rancho Cucamonga, CA
map0.72022/09/27 20:42:3933.336N116.193W10.67 17 km (10 mi) SSW of Oasis, CA
map0.82022/09/27 20:42:1532.918N116.246W7.18 27 km (17 mi) SSW of Ocotillo Wells, CA
map0.62022/09/27 20:25:0732.825N116.157W10.92 18 km (11 mi) WNW of Ocotillo, CA
map1.12022/09/27 20:17:5937.092N115.760W8.1 61 km (38 mi) WSW of Alamo, NV
map2.12022/09/27 19:54:4338.150N116.756W13.0 43 km (26 mi) ENE of Tonopah, NV
map0.82022/09/27 19:03:1035.874N117.668W7.54 23 km (14 mi) ESE of Little Lake, CA
map0.92022/09/27 18:53:3732.771N115.839W5.42 15 km ( 9 mi) ENE of Ocotillo, CA
map1.62022/09/27 18:36:0932.770N115.841W3.96 15 km ( 9 mi) ENE of Ocotillo, CA
map0.62022/09/27 18:30:5436.711N116.312W7.3 45 km (28 mi) ESE of Beatty, NV
map1.12022/09/27 18:15:5635.874N117.672W7.27 22 km (14 mi) ESE of Little Lake, CA
map0.52022/09/27 18:08:1233.659N116.708W15.47 9 km ( 6 mi) S of Idyllwild, CA
map-0.32022/09/27 18:01:3437.128N116.384W12.1 41 km (25 mi) NE of Beatty, NV
map0.42022/09/27 17:37:3638.821N122.839W2.16 9 km ( 5 mi) NW of The Geysers, CA
map1.92022/09/27 17:23:1935.872N117.671W7.26 22 km (14 mi) ESE of Little Lake, CA
map2.02022/09/27 17:19:0135.745N118.018W3.81 22 km (13 mi) WNW of Inyokern, CA
map0.82022/09/27 17:10:0137.602N122.454W7.71 3 km ( 2 mi) ESE of Pacifica, CA
map1.02022/09/27 16:56:0335.649N117.421W6.01 13 km ( 8 mi) S of Searles Valley, CA
map1.72022/09/27 16:36:2435.029N117.676W0.87 0 km ( 0 mi) ESE of Quarry at BORON (Probable quarry explosion)
map0.92022/09/27 15:59:1438.815N122.762W2.01 3 km ( 2 mi) WSW of Cobb, CA
map1.12022/09/27 15:40:0734.047N118.156W11.04 2 km ( 1 mi) NE of East Los Angeles, CA
map1.32022/09/27 15:32:0035.717N117.538W8.24 13 km ( 8 mi) WSW of Searles Valley, CA
map1.52022/09/27 15:15:1835.410N119.679W17.23 19 km (12 mi) W of Buttonwillow, CA
map1.42022/09/27 15:12:5632.825N115.479W7.36 8 km ( 5 mi) ENE of El Centro, CA
map0.92022/09/27 14:28:4833.011N116.435W10.95 17 km (11 mi) ESE of Julian, CA
map1.12022/09/27 14:25:1536.962N121.601W4.6 6 km ( 4 mi) SSW of Gilroy, CA
map0.52022/09/27 14:15:0538.837N122.787W2.47 6 km ( 4 mi) WNW of Cobb, CA
map0.72022/09/27 13:38:5933.588N116.616W13.7 6 km ( 4 mi) NE of Anza, CA
map1.82022/09/27 13:30:1539.031N123.261W-0.28 9 km ( 6 mi) ENE of Boonville, CA
map1.12022/09/27 13:00:5338.834N122.787W1.96 6 km ( 4 mi) WNW of Cobb, CA
map1.12022/09/27 12:55:5433.871N117.504W-0.49 2 km ( 2 mi) N of Quarry at CORONA (Probable quarry explosion)
map1.02022/09/27 12:54:5438.818N122.808W1.37 6 km ( 4 mi) NW of The Geysers, CA
map0.92022/09/27 12:52:2138.816N122.809W1.47 6 km ( 4 mi) NW of The Geysers, CA
map1.52022/09/27 12:51:4338.816N122.808W1.58 6 km ( 4 mi) NW of The Geysers, CA
map1.72022/09/27 12:41:3233.709N116.825W17.05 8 km ( 5 mi) SE of Valle Vista, CA
map0.82022/09/27 12:32:5435.876N117.687W9.71 21 km (13 mi) ESE of Little Lake, CA
map0.72022/09/27 11:58:1135.865N117.691W8.82 21 km (13 mi) ESE of Little Lake, CA
map1.42022/09/27 11:57:1634.983N118.211W-0.76 5 km ( 3 mi) SW of Quarry at TPO-DBM (Probable quarry explosion)
map0.62022/09/27 11:51:5738.824N122.857W2.32 10 km ( 6 mi) WNW of The Geysers, CA
map1.32022/09/27 11:40:1435.968N120.520W10.29 11 km ( 7 mi) NW of Parkfield, CA
map0.52022/09/27 11:33:5938.788N122.761W2.32 1 km ( 1 mi) NNW of The Geysers, CA
map0.22022/09/27 11:24:4536.031N120.620W0.92 22 km (14 mi) NW of Parkfield, CA
map1.82022/09/27 11:13:0633.267N116.430W3.42 5 km ( 3 mi) WNW of Borrego Springs, CA
map1.32022/09/27 10:45:0334.999N119.034W10.58 11 km ( 7 mi) WNW of Grapevine, CA
map0.82022/09/27 10:35:3135.906N117.739W9.8 16 km (10 mi) ESE of Little Lake, CA
map0.72022/09/27 10:05:5533.417N116.907W8.41 5 km ( 3 mi) SW of Aguanga, CA
map0.22022/09/27 10:01:5735.502N118.379W11.4 14 km ( 9 mi) SE of Bodfish, CA
map0.62022/09/27 10:01:4735.705N117.507W6.4 12 km ( 7 mi) SW of Searles Valley, CA
map1.32022/09/27 09:49:2236.262N115.356W5.0 14 km ( 9 mi) WNW of Las Vegas, NV
map0.92022/09/27 09:46:1938.834N122.818W2.02 8 km ( 5 mi) NW of The Geysers, CA
map0.72022/09/27 09:35:0038.768N122.728W1.04 3 km ( 2 mi) ESE of The Geysers, CA
map0.42022/09/27 09:32:3735.299N117.772W6.96 15 km ( 9 mi) WSW of Johannesburg, CA
map-0.22022/09/27 09:32:1036.690N116.270W6.8 50 km (31 mi) ESE of Beatty, NV
map0.92022/09/27 09:18:3533.374N116.959W11 9 km ( 6 mi) WNW of Palomar Observatory, CA
map1.02022/09/27 09:18:0237.325N122.225W4.65 7 km ( 4 mi) S of Portola Valley, CA
map0.92022/09/27 09:15:0033.497N116.781W6.87 10 km ( 6 mi) NE of Aguanga, CA
map0.62022/09/27 08:56:3037.630N122.474W7.38 2 km ( 1 mi) NNE of Pacifica, CA
map1.12022/09/27 08:51:4435.634N117.559W9.08 11 km ( 7 mi) E of Ridgecrest, CA
map-0.52022/09/27 08:51:3435.755N118.409W6.65 1 km ( 1 mi) E of Kernville, CA
map0.92022/09/27 08:45:3738.833N122.810W2.05 8 km ( 5 mi) W of Cobb, CA
map2.82022/09/27 08:43:0138.157N117.953W9.3 64 km (40 mi) W of Tonopah, NV
map2.62022/09/27 08:39:1236.960N121.603W5.37 6 km ( 4 mi) SSW of Gilroy, CA
map0.42022/09/27 08:33:0338.827N122.856W2.65 10 km ( 6 mi) WNW of The Geysers, CA
map0.42022/09/27 08:31:3638.827N122.854W2.2 10 km ( 6 mi) WNW of The Geysers, CA
map2.42022/09/27 08:27:1036.961N121.605W6.25 6 km ( 4 mi) SSW of Gilroy, CA
map1.82022/09/27 08:18:1034.156N116.989W6.96 12 km ( 8 mi) SW of Big Bear Lake, CA
map0.92022/09/27 08:07:0538.985N118.210W6.5 62 km (39 mi) NE of Hawthorne, NV
map1.02022/09/27 08:03:0138.797N122.749W1.41 2 km ( 1 mi) NNE of The Geysers, CA
map0.92022/09/27 08:02:0938.797N122.748W1.92 2 km ( 1 mi) NNE of The Geysers, CA
map2.12022/09/27 08:01:4838.796N122.748W1.56 2 km ( 1 mi) NNE of The Geysers, CA
map1.92022/09/27 07:41:3937.549N117.739W0.0 61 km (38 mi) ENE of Bishop, CA
map1.22022/09/27 07:40:3738.834N122.791W2.03 6 km ( 4 mi) WNW of Cobb, CA
map0.82022/09/27 07:26:0833.879N116.885W13.68 5 km ( 3 mi) S of Banning, CA
map0.72022/09/27 07:17:5835.865N117.680W9.68 22 km (14 mi) ESE of Little Lake, CA
map0.82022/09/27 06:52:5638.802N122.775W0.82 3 km ( 2 mi) NNW of The Geysers, CA
map0.52022/09/27 06:41:4538.835N122.811W1.85 8 km ( 5 mi) W of Cobb, CA
map1.52022/09/27 06:40:3135.337N118.548W2.46 24 km (15 mi) NNW of Tehachapi, CA
map1.02022/09/27 06:34:0638.569N122.346W6.08 9 km ( 6 mi) E of Angwin, CA
map1.92022/09/27 06:29:3335.505N118.396W4.08 13 km ( 8 mi) SE of Bodfish, CA
map1.22022/09/27 06:29:1638.173N117.833W7.2 54 km (34 mi) WNW of Tonopah, NV
map1.42022/09/27 06:19:0137.633N122.481W8.05 2 km ( 1 mi) NNE of Pacifica, CA
map1.42022/09/27 06:06:4435.341N118.542W1.61 25 km (15 mi) NNW of Tehachapi, CA
MAP3.32022/09/27 06:02:5734.430N116.490W7.67 36 km (22 mi) N of Yucca Valley, CA
map2.32022/09/27 05:53:5935.335N118.546W3.68 24 km (15 mi) NNW of Tehachapi, CA
map0.62022/09/27 05:32:4233.757N117.537W7.61 12 km ( 7 mi) NNE of Trabuco Canyon, CA
map1.52022/09/27 05:30:0335.513N118.392W4.8 12 km ( 8 mi) SE of Bodfish, CA
map0.22022/09/27 05:11:4238.829N122.802W1.83 7 km ( 4 mi) W of Cobb, CA
map0.92022/09/27 05:08:3938.833N122.815W1.85 8 km ( 5 mi) NW of The Geysers, CA
map0.22022/09/27 04:52:5938.818N122.767W2 4 km ( 2 mi) W of Cobb, CA
map1.12022/09/27 04:52:5437.146N121.528W7.25 10 km ( 6 mi) NE of San Martin, CA
map1.32022/09/27 04:36:4333.151N116.076W10.41 5 km ( 3 mi) E of Ocotillo Wells, CA
map1.02022/09/27 04:10:0037.663N122.490W7.69 3 km ( 2 mi) SSW of Broadmoor, CA
map1.22022/09/27 04:08:3533.166N116.012W3.55 11 km ( 7 mi) ENE of Ocotillo Wells, CA
map0.72022/09/27 03:52:4238.837N122.794W2.11 6 km ( 4 mi) WNW of Cobb, CA
map1.02022/09/27 03:51:5138.828N122.815W2.07 8 km ( 5 mi) NW of The Geysers, CA
map0.52022/09/27 03:44:5838.837N122.740W1.01 2 km ( 1 mi) NW of Cobb, CA
map0.82022/09/27 03:36:4835.507N118.396W6.67 12 km ( 8 mi) SE of Bodfish, CA
map1.22022/09/27 03:06:2735.505N118.394W4.37 13 km ( 8 mi) SE of Bodfish, CA
map2.02022/09/27 03:04:2035.509N118.392W4.59 13 km ( 8 mi) SE of Bodfish, CA
map1.72022/09/27 02:34:2035.513N118.394W3.83 12 km ( 8 mi) SE of Bodfish, CA
map1.32022/09/27 02:12:5232.721N115.835W6.03 15 km ( 9 mi) E of Ocotillo, CA
map2.62022/09/27 02:10:4435.509N118.388W4.99 13 km ( 8 mi) SE of Bodfish, CA
map0.42022/09/27 01:47:4038.834N122.809W2.15 8 km ( 5 mi) W of Cobb, CA
map-0.12022/09/27 01:40:0936.726N116.309W8.4 45 km (28 mi) ESE of Beatty, NV
map0.42022/09/27 01:37:3933.491N116.501W9.81 18 km (11 mi) ESE of Anza, CA
map1.72022/09/27 01:26:0535.882N117.732W8.29 17 km (10 mi) ESE of Little Lake, CA
map0.92022/09/27 01:21:1334.019N116.742W13.15 12 km ( 7 mi) NNE of Cabazon, CA
map1.42022/09/27 01:15:5835.506N118.397W6.64 13 km ( 8 mi) SE of Bodfish, CA
map1.12022/09/27 01:13:3135.509N118.395W6.73 12 km ( 8 mi) SE of Bodfish, CA
map0.42022/09/27 01:13:2335.511N118.399W8.25 12 km ( 7 mi) SE of Bodfish, CA
map0.62022/09/27 01:09:3538.157N117.894W8.6 59 km (37 mi) W of Tonopah, NV
MAP3.72022/09/27 01:03:3935.508N118.388W5.18 13 km ( 8 mi) SE of Bodfish, CA
map0.62022/09/27 00:50:2638.827N122.814W2.1 7 km ( 5 mi) NW of The Geysers, CA
map1.92022/09/27 00:34:5632.849N116.031W8.54 13 km ( 8 mi) NNW of Ocotillo, CA
map1.02022/09/27 00:14:3735.866N117.687W8.47 21 km (13 mi) ESE of Little Lake, CA
map0.52022/09/26 23:56:5237.898N122.222W8.71 4 km ( 3 mi) WNW of Orinda, CA
map0.32022/09/26 23:55:3838.823N122.788W2.14 6 km ( 4 mi) W of Cobb, CA
map0.02022/09/26 23:48:1935.927N120.476W4.26 5 km ( 3 mi) NW of Parkfield, CA
map2.82022/09/26 23:46:0235.970N119.878W29.65 9 km ( 5 mi) ESE of Kettleman City, CA
map1.02022/09/26 23:40:4538.834N122.818W1.65 8 km ( 5 mi) NW of The Geysers, CA
map0.62022/09/26 23:27:4137.467N118.842W3.65 22 km (14 mi) SSE of Mammoth Lakes, CA
map1.12022/09/26 22:52:1439.994N120.152W6.7 34 km (21 mi) NE of Portola, CA
map0.42022/09/26 22:45:0838.833N122.801W1.84 7 km ( 4 mi) W of Cobb, CA
map1.22022/09/26 22:09:2133.232N116.735W12.25 3 km ( 2 mi) ESE of Lake Henshaw, CA
map1.02022/09/26 21:46:5338.819N122.763W2.02 3 km ( 2 mi) W of Cobb, CA
map0.52022/09/26 21:17:5633.965N116.810W18.37 6 km ( 4 mi) NNW of Cabazon, CA
map0.92022/09/26 20:57:1738.832N122.817W1.66 8 km ( 5 mi) NW of The Geysers, CA
map-0.02022/09/26 20:55:5235.931N120.482W4.18 6 km ( 4 mi) NW of Parkfield, CA
map0.32022/09/26 20:43:2938.833N122.818W2 8 km ( 5 mi) NW of The Geysers, CA
map0.52022/09/26 20:31:2638.182N117.820W5.2 53 km (33 mi) WNW of Tonopah, NV
map1.92022/09/26 20:23:3736.549N121.082W8.46 26 km (16 mi) ENE of Soledad, CA
map0.52022/09/26 20:23:0438.829N122.808W0.96 7 km ( 5 mi) NW of The Geysers, CA
map0.42022/09/26 20:23:0335.932N120.479W4.15 6 km ( 4 mi) NW of Parkfield, CA
map1.62022/09/26 20:22:2936.047N117.377W-0.15 31 km (19 mi) N of Searles Valley, CA
map0.42022/09/26 20:20:1038.845N122.816W0.75 8 km ( 5 mi) WNW of Cobb, CA
map0.92022/09/26 20:19:4338.844N122.838W1.77 10 km ( 6 mi) NW of The Geysers, CA
map-0.02022/09/26 20:07:0533.648N116.718W13.19 10 km ( 6 mi) S of Idyllwild, CA
map0.42022/09/26 19:48:0239.993N119.557W9.7 40 km (25 mi) NNE of Spanish Springs, NV
map0.52022/09/26 19:12:4639.172N123.451W4.74 20 km (12 mi) NNW of Boonville, CA
map0.62022/09/26 19:02:3433.396N116.403W12.49 16 km (10 mi) N of Borrego Springs, CA
map1.02022/09/26 18:52:3735.647N117.448W8.66 14 km ( 9 mi) SSW of Searles Valley, CA
map1.42022/09/26 18:46:5933.166N116.007W4.32 12 km ( 7 mi) ENE of Ocotillo Wells, CA
map2.82022/09/26 18:46:1735.336N118.546W3.08 24 km (15 mi) NNW of Tehachapi, CA
map1.02022/09/26 18:40:0034.996N119.029W13.17 11 km ( 7 mi) WNW of Grapevine, CA
map1.72022/09/26 18:36:4835.337N118.538W3 24 km (15 mi) NNW of Tehachapi, CA
map2.12022/09/26 18:32:2735.339N118.547W2.15 25 km (15 mi) NNW of Tehachapi, CA
map1.72022/09/26 18:24:3040.737N122.481W18.43 11 km ( 7 mi) NW of Central Valley (historical), CA
map0.72022/09/26 17:59:2138.168N117.883W7.2 58 km (36 mi) W of Tonopah, NV
map0.82022/09/26 17:54:5235.869N117.714W9.85 19 km (12 mi) ESE of Little Lake, CA
map0.42022/09/26 17:51:5638.824N122.854W2.7 10 km ( 6 mi) WNW of The Geysers, CA
map0.82022/09/26 17:42:4539.579N119.103W5.8 13 km ( 8 mi) ESE of Fernley, NV
map1.02022/09/26 17:41:1339.590N119.085W0.0 14 km ( 9 mi) E of Fernley, NV
map1.12022/09/26 16:33:2033.737N117.501W6.81 12 km ( 7 mi) NE of Trabuco Canyon, CA
map1.72022/09/26 16:26:1335.033N117.681W-0.82 0 km ( 0 mi) N of Quarry at BORON (Probable quarry explosion)
map1.52022/09/26 16:14:4635.406N119.673W17.7 18 km (11 mi) W of Buttonwillow, CA
map2.82022/09/26 16:08:2340.392N124.478W24.18 27 km (17 mi) SW of Ferndale, CA
map1.92022/09/26 16:02:2935.508N118.395W5.8 13 km ( 8 mi) SE of Bodfish, CA
map0.82022/09/26 15:44:0033.887N116.805W17.42 4 km ( 2 mi) SSW of Cabazon, CA
map1.62022/09/26 15:26:0334.019N117.559W11.58 5 km ( 3 mi) NW of Mira Loma, CA
map0.92022/09/26 15:12:0338.835N122.800W2.17 7 km ( 4 mi) WNW of Cobb, CA
map1.32022/09/26 14:23:3937.338N117.148W6.1 59 km (37 mi) NW of Beatty, NV
map0.12022/09/26 14:18:5238.787N122.747W2.05 1 km ( 1 mi) NE of The Geysers, CA
map1.02022/09/26 14:17:1738.818N122.767W1.85 4 km ( 2 mi) W of Cobb, CA
map0.72022/09/26 13:58:5738.787N122.745W1.84 1 km ( 1 mi) NE of The Geysers, CA
map1.42022/09/26 13:57:2438.825N122.803W2.51 7 km ( 4 mi) NW of The Geysers, CA
map0.62022/09/26 13:55:0833.687N116.734W15.21 6 km ( 4 mi) SSW of Idyllwild, CA
map1.42022/09/26 13:17:1238.142N117.972W6.7 65 km (41 mi) W of Tonopah, NV
map0.42022/09/26 12:49:4138.169N118.156W9.5 57 km (35 mi) SE of Hawthorne, NV
map0.92022/09/26 12:41:4436.097N117.854W5.33 10 km ( 6 mi) NE of Coso Junction, CA
map0.12022/09/26 12:20:0837.019N116.287W7.7 43 km (27 mi) ENE of Beatty, NV
map0.92022/09/26 12:18:0333.337N116.322W10.9 10 km ( 6 mi) NNE of Borrego Springs, CA
map0.92022/09/26 12:15:4933.870N117.501W-0.37 2 km ( 1 mi) N of Quarry at CORONA (Probable quarry explosion)
map0.92022/09/26 12:15:4138.778N122.719W2.07 3 km ( 2 mi) E of The Geysers, CA
map-0.22022/09/26 12:13:5938.750N122.737W1.02 4 km ( 2 mi) SSE of The Geysers, CA
map0.52022/09/26 11:24:0938.790N122.761W1.83 1 km ( 1 mi) NNW of The Geysers, CA
map1.32022/09/26 11:18:3338.144N117.969W6.5 65 km (40 mi) W of Tonopah, NV
map2.52022/09/26 10:07:3839.799N123.193W6.42 5 km ( 3 mi) E of Covelo, CA
map1.92022/09/26 10:07:3136.560N121.115W1.53 24 km (15 mi) NE of Soledad, CA
map0.72022/09/26 10:06:2633.531N116.785W10.19 11 km ( 7 mi) WSW of Anza, CA
map0.62022/09/26 09:47:0333.600N116.808W6.6 13 km ( 8 mi) WNW of Anza, CA
map0.72022/09/26 09:41:2435.895N117.706W9.09 19 km (12 mi) ESE of Little Lake, CA
map0.82022/09/26 08:48:0634.407N119.254W15.12 5 km ( 3 mi) SSW of Ojai, CA
map2.12022/09/26 08:21:0433.283N116.244W11.02 13 km ( 8 mi) ENE of Borrego Springs, CA
map2.72022/09/26 08:09:2731.622N116.034W5.31 51 km (32 mi) ESE of Maneadero, B.C., MX
map1.62022/09/26 07:38:3933.732N118.009W11.67 3 km ( 2 mi) S of Westminster, CA
map0.72022/09/26 07:27:0433.504N116.498W14.23 17 km (11 mi) ESE of Anza, CA
map1.52022/09/26 07:09:1833.727N118.013W11.73 4 km ( 2 mi) S of Westminster, CA
map-0.22022/09/26 07:05:0536.171N117.638W4.57 31 km (19 mi) ENE of Coso Junction, CA
map1.02022/09/26 06:55:4433.505N116.444W8.26 22 km (13 mi) SW of La Quinta, CA
map0.82022/09/26 06:24:3938.819N122.779W1.08 5 km ( 3 mi) W of Cobb, CA
map0.52022/09/26 06:17:4438.836N122.793W1.96 6 km ( 4 mi) WNW of Cobb, CA
map0.72022/09/26 06:15:4033.246N116.819W12.49 5 km ( 3 mi) W of Lake Henshaw, CA
map0.82022/09/26 06:15:0237.086N121.495W7.22 10 km ( 6 mi) E of San Martin, CA
map0.82022/09/26 06:13:1833.062N116.409W6.65 18 km (11 mi) E of Julian, CA
map1.32022/09/26 06:00:3733.120N115.601W7.64 8 km ( 5 mi) W of Calipatria, CA
map0.12022/09/26 05:50:4437.583N118.862W6.14 12 km ( 7 mi) ESE of Mammoth Lakes, CA
map1.42022/09/26 05:41:3538.145N117.972W6.7 65 km (41 mi) W of Tonopah, NV
map1.12022/09/26 05:29:5934.991N119.035W15.93 11 km ( 7 mi) WNW of Grapevine, CA
map1.72022/09/26 05:08:0235.007N119.034W7.99 12 km ( 7 mi) NW of Grapevine, CA
map0.82022/09/26 04:46:1338.163N117.896W8.3 59 km (37 mi) W of Tonopah, NV
map0.92022/09/26 04:41:0834.259N117.931W8.8 13 km ( 8 mi) NNE of Bradbury, CA
map1.02022/09/26 04:24:2737.414N121.763W7.31 6 km ( 4 mi) NE of East Foothills, CA
map1.32022/09/26 04:16:1039.337N118.465W0.0 31 km (19 mi) ESE of Fallon, NV
map1.72022/09/26 04:15:3635.009N119.032W7.89 12 km ( 7 mi) NW of Grapevine, CA
map1.32022/09/26 04:14:4734.999N119.035W12.42 11 km ( 7 mi) WNW of Grapevine, CA
map0.82022/09/26 03:47:4934.146N116.996W6.77 12 km ( 8 mi) ESE of Running Springs, CA
map1.22022/09/26 03:45:5337.950N122.118W9.6 5 km ( 3 mi) W of Pleasant Hill, CA
map0.82022/09/26 03:44:4635.907N117.745W9.69 15 km ( 9 mi) ESE of Little Lake, CA
map0.32022/09/26 03:33:0038.836N122.792W2.39 6 km ( 4 mi) WNW of Cobb, CA
map0.92022/09/26 03:32:1038.778N122.726W1.81 3 km ( 2 mi) E of The Geysers, CA
map0.42022/09/26 03:27:0238.755N119.585W5.0 20 km (13 mi) SE of Gardnerville Ranchos, NV
map1.32022/09/26 03:09:5833.285N116.083W2.87 12 km ( 7 mi) W of Salton City, CA
map1.82022/09/26 03:04:4738.839N122.822W2.44 9 km ( 5 mi) WNW of Cobb, CA
map1.72022/09/26 03:00:2540.491N123.537W6.3 31 km (19 mi) WSW of Hayfork, CA
map0.62022/09/26 02:37:1533.505N116.500W14.44 17 km (11 mi) ESE of Anza, CA
map0.82022/09/26 02:31:2538.833N122.815W1.73 8 km ( 5 mi) NW of The Geysers, CA
map0.62022/09/26 02:30:5433.491N116.504W10.37 17 km (11 mi) ESE of Anza, CA
map1.22022/09/26 02:17:2735.504N118.388W6.77 13 km ( 8 mi) SE of Bodfish, CA
map0.52022/09/26 02:04:1336.986N115.767W0.0 68 km (42 mi) SW of Alamo, NV
map0.72022/09/26 01:44:0238.799N122.750W2.23 3 km ( 2 mi) NNE of The Geysers, CA
map-0.52022/09/26 01:34:1036.683N116.292W8.8 48 km (30 mi) ESE of Beatty, NV
map-0.52022/09/26 01:14:0736.748N116.252W4.1 48 km (30 mi) ESE of Beatty, NV
map1.22022/09/26 01:07:0038.840N122.836W1.44 10 km ( 6 mi) NW of The Geysers, CA
map1.02022/09/26 00:54:5338.846N122.755W1.16 4 km ( 2 mi) NW of Cobb, CA
map1.92022/09/26 00:40:5940.096N123.773W21.06 5 km ( 3 mi) ESE of Redway, CA
map-0.12022/09/26 00:16:0939.757N120.089W0.0 13 km ( 8 mi) NW of Cold Springs, NV
map-0.42022/09/26 00:06:0339.393N119.755W2.2 16 km (10 mi) S of Sparks, NV
map1.52022/09/26 00:04:5138.814N122.814W3.24 6 km ( 4 mi) NW of The Geysers, CA
map0.72022/09/26 00:04:1438.807N122.741W2.22 2 km ( 1 mi) SW of Cobb, CA
map0.72022/09/25 23:57:0534.287N117.039W7.57 11 km ( 7 mi) NE of Running Springs, CA
map1.32022/09/25 23:50:4036.490N121.067W6.55 24 km (15 mi) ENE of Soledad, CA
map1.12022/09/25 23:47:2439.971N120.137W6.5 34 km (21 mi) ENE of Portola, CA
map1.02022/09/25 23:27:4338.408N118.905W13.8 28 km (17 mi) WSW of Hawthorne, NV
map0.72022/09/25 22:59:3038.800N122.753W2.01 3 km ( 2 mi) N of The Geysers, CA
map0.92022/09/25 22:52:0738.803N122.738W1.71 2 km ( 2 mi) SSW of Cobb, CA
map0.62022/09/25 22:49:5640.108N119.671W16.0 51 km (32 mi) N of Spanish Springs, NV
map0.52022/09/25 22:38:1533.740N116.849W4.32 4 km ( 3 mi) E of Valle Vista, CA
map0.32022/09/25 22:38:0033.671N116.758W14.96 8 km ( 5 mi) SSW of Idyllwild, CA
map1.02022/09/25 22:35:4438.118N118.061W7.5 67 km (41 mi) SE of Hawthorne, NV
map0.92022/09/25 22:29:1035.870N117.713W10.84 19 km (12 mi) ESE of Little Lake, CA
map0.92022/09/25 22:26:0438.806N122.740W1.94 2 km ( 1 mi) SW of Cobb, CA
map0.72022/09/25 22:20:0638.807N122.743W2.43 2 km ( 1 mi) SW of Cobb, CA
map0.22022/09/25 22:19:2038.809N122.741W1.63 2 km ( 1 mi) SW of Cobb, CA
map2.72022/09/25 22:18:3138.805N122.743W1.9 3 km ( 2 mi) SW of Cobb, CA
map0.52022/09/25 22:16:3535.885N117.734W9.19 17 km (10 mi) ESE of Little Lake, CA
map0.52022/09/25 22:04:1437.520N118.824W4.79 19 km (12 mi) SE of Mammoth Lakes, CA
map1.22022/09/25 21:52:0535.694N117.590W6.69 11 km ( 7 mi) NE of Ridgecrest, CA
map1.62022/09/25 21:48:0640.323N121.871W8.22 19 km (12 mi) S of Shingletown, CA
map-0.02022/09/25 21:44:1138.788N122.762W1.75 1 km ( 1 mi) NNW of The Geysers, CA
map1.42022/09/25 21:18:0835.223N118.584W8.27 16 km (10 mi) NW of Tehachapi, CA
map1.42022/09/25 20:50:5338.791N122.752W4.05 2 km ( 1 mi) NNE of The Geysers, CA
map0.62022/09/25 20:49:4637.419N115.722W5.2 50 km (31 mi) W of Alamo, NV
map1.12022/09/25 20:38:4733.253N116.059W3.34 11 km ( 7 mi) WSW of Salton City, CA
map0.62022/09/25 20:29:1333.243N116.264W7.31 10 km ( 6 mi) E of Borrego Springs, CA
map0.62022/09/25 20:07:5238.814N122.816W3.09 7 km ( 4 mi) NW of The Geysers, CA
map0.52022/09/25 19:58:0337.484N118.862W3.08 20 km (12 mi) SSE of Mammoth Lakes, CA
map0.22022/09/25 19:48:0039.376N119.978W5.0 14 km ( 9 mi) N of Incline Village, NV
map0.72022/09/25 19:45:1833.318N116.762W10.97 8 km ( 5 mi) N of Lake Henshaw, CA
map1.02022/09/25 19:36:5138.637N122.846W9.58 4 km ( 2 mi) NE of Healdsburg, CA
map0.72022/09/25 19:23:2033.319N116.766W11.43 9 km ( 5 mi) N of Lake Henshaw, CA
map0.32022/09/25 19:23:0033.711N116.819W17.49 8 km ( 5 mi) ESE of Valle Vista, CA
map0.22022/09/25 19:17:1733.669N116.737W14.01 8 km ( 5 mi) SSW of Idyllwild, CA
map0.42022/09/25 19:17:1233.791N116.124W4.04 11 km ( 7 mi) NE of Indio, CA
map0.42022/09/25 19:10:2438.818N122.816W2.24 7 km ( 4 mi) NW of The Geysers, CA
map0.82022/09/25 19:03:3535.604N117.403W8.34 18 km (11 mi) S of Trona, CA
map1.02022/09/25 18:55:2735.505N118.385W8.45 13 km ( 8 mi) SE of Bodfish, CA
map0.72022/09/25 18:54:0333.714N116.828W16.67 7 km ( 4 mi) ESE of Valle Vista, CA
map1.12022/09/25 18:47:0138.460N122.701W3.74 1 km ( 1 mi) NNE of Santa Rosa, CA
map1.22022/09/25 18:46:2038.817N123.581W4.82 16 km (10 mi) NW of Sea Ranch, CA
map2.02022/09/25 18:33:1836.780N121.092W9.56 25 km (15 mi) E of Ridgemark, CA
map1.82022/09/25 18:13:4638.793N122.791W0.14 3 km ( 2 mi) WNW of The Geysers, CA
map-0.32022/09/25 18:04:4537.186N116.907W6.9 34 km (21 mi) NNW of Beatty, NV
map0.82022/09/25 17:50:0939.341N119.748W2.2 18 km (11 mi) NW of Dayton, NV
map1.02022/09/25 17:07:2533.779N116.114W2.01 11 km ( 7 mi) NE of Indio, CA
map0.22022/09/25 16:50:5937.692N118.906W0.15 9 km ( 5 mi) NE of Mammoth Lakes, CA
map1.02022/09/25 16:27:3333.345N116.255W12.1 15 km ( 9 mi) NE of Borrego Springs, CA
map1.22022/09/25 16:27:2933.280N115.993W4.42 4 km ( 3 mi) WSW of Salton City, CA
map1.72022/09/25 16:20:2935.031N117.681W-0.82 0 km ( 0 mi) NNW of Quarry at BORON (Probable quarry explosion)
map0.52022/09/25 15:47:0433.489N116.502W9.59 18 km (11 mi) ESE of Anza, CA
map-0.22022/09/25 15:44:2137.618N118.832W3.41 13 km ( 8 mi) E of Mammoth Lakes, CA
map0.92022/09/25 15:21:0333.495N116.786W7.13 9 km ( 6 mi) NE of Aguanga, CA
map0.72022/09/25 15:12:2633.809N116.893W13.56 7 km ( 4 mi) ENE of San Jacinto, CA
map0.32022/09/25 14:37:1937.621N118.820W4.39 14 km ( 9 mi) E of Mammoth Lakes, CA
map1.12022/09/25 14:30:0133.268N115.962W5.46 3 km ( 2 mi) S of Salton City, CA
map2.02022/09/25 14:27:5140.128N122.747W12.49 32 km (20 mi) WNW of Rancho Tehama Reserve, CA
map0.52022/09/25 14:05:4533.496N116.509W10.73 17 km (10 mi) ESE of Anza, CA
map0.62022/09/25 13:36:3633.490N116.502W10.65 17 km (11 mi) ESE of Anza, CA
map0.92022/09/25 12:47:5834.292N116.823W4.81 4 km ( 2 mi) NNE of Big Bear City, CA
map1.42022/09/25 12:24:1735.507N118.388W8.61 13 km ( 8 mi) SE of Bodfish, CA
map1.52022/09/25 12:12:4735.812N117.640W9.15 21 km (13 mi) N of Ridgecrest, CA
map1.52022/09/25 12:09:0735.752N117.588W4.54 6 km ( 4 mi) SSW of Quarry at CLC (Probable quarry explosion)
map-0.02022/09/25 12:04:4938.775N122.739W1.42 2 km ( 1 mi) E of The Geysers, CA
map0.42022/09/25 11:58:2535.928N120.478W4.93 5 km ( 3 mi) NW of Parkfield, CA
map0.12022/09/25 11:45:4038.845N122.882W2.82 13 km ( 8 mi) ENE of Cloverdale, CA
map-0.52022/09/25 11:39:3036.678N116.298W9.7 48 km (30 mi) ESE of Beatty, NV
map0.72022/09/25 11:25:5833.703N116.746W16.41 5 km ( 3 mi) SSW of Idyllwild, CA
map0.22022/09/25 11:22:0838.823N122.785W1.94 5 km ( 3 mi) W of Cobb, CA
map0.92022/09/25 11:19:5133.950N116.349W5.31 14 km ( 9 mi) E of Desert Hot Springs, CA
map0.52022/09/25 11:17:5333.669N116.756W15.21 9 km ( 5 mi) SSW of Idyllwild, CA
map0.32022/09/25 10:45:4838.902N119.635W2.1 9 km ( 6 mi) E of Gardnerville Ranchos, NV
map1.22022/09/25 10:41:0533.108N116.460W12.14 14 km ( 8 mi) ENE of Julian, CA
map1.32022/09/25 10:40:4134.909N116.540W8.1 40 km (25 mi) WNW of Ludlow, CA
map2.02022/09/25 10:12:0237.124N121.538W2.34 8 km ( 5 mi) NE of San Martin, CA
map0.72022/09/25 09:13:1739.633N119.378W10.0 11 km ( 7 mi) WNW of Fernley, NV
map0.72022/09/25 08:41:4639.345N118.444W13.8 32 km (20 mi) ESE of Fallon, NV
map0.82022/09/25 08:38:5733.489N116.502W8.08 17 km (11 mi) ESE of Anza, CA
map0.92022/09/25 08:36:1435.639N117.441W10.14 15 km ( 9 mi) SSW of Searles Valley, CA
map1.12022/09/25 08:22:5135.375N118.122W4.48 30 km (19 mi) NNW of California City, CA
map2.62022/09/25 08:21:0732.475N115.325W7.52 10 km ( 6 mi) SSE of Puebla, B.C., MX
map1.02022/09/25 08:20:2135.071N118.179W12.83 2 km ( 1 mi) NNW of Mojave, CA
map1.42022/09/25 08:14:3237.544N117.750W0.0 60 km (37 mi) ENE of Bishop, CA
map1.62022/09/25 08:03:3035.906N117.737W3.56 16 km (10 mi) ESE of Little Lake, CA
map0.92022/09/25 07:58:0738.829N122.810W1.4 7 km ( 5 mi) NW of The Geysers, CA
map2.22022/09/25 07:47:2537.739N122.554W9.12 9 km ( 5 mi) NW of Broadmoor, CA
map0.82022/09/25 07:45:3933.780N116.119W2.77 11 km ( 7 mi) NE of Indio, CA
map-0.12022/09/25 07:38:5536.675N116.295W9.5 48 km (30 mi) ESE of Beatty, NV
map0.32022/09/25 07:36:0036.675N116.293W9.5 49 km (30 mi) ESE of Beatty, NV
map0.62022/09/25 07:31:5933.689N116.800W11.05 9 km ( 6 mi) SW of Idyllwild, CA
map0.42022/09/25 07:31:5638.826N122.810W2.43 7 km ( 4 mi) NW of The Geysers, CA
map0.92022/09/25 07:19:1037.547N117.753W0.0 60 km (37 mi) ENE of Bishop, CA
map0.92022/09/25 07:18:0938.181N117.816W6.4 53 km (33 mi) WNW of Tonopah, NV
map0.92022/09/25 07:04:0338.798N122.749W1.81 2 km ( 1 mi) NNE of The Geysers, CA
map0.92022/09/25 06:55:3235.658N117.420W10.86 12 km ( 8 mi) S of Searles Valley, CA
map1.12022/09/25 06:53:5136.563N121.115W1.34 24 km (15 mi) NE of Soledad, CA
map0.82022/09/25 06:44:3138.802N122.822W2.64 6 km ( 4 mi) WNW of The Geysers, CA
map0.52022/09/25 06:43:5335.876N117.697W5.93 20 km (12 mi) ESE of Little Lake, CA
map0.92022/09/25 06:01:4033.503N116.501W12.94 17 km (11 mi) ESE of Anza, CA
map1.22022/09/25 05:58:5737.134N117.739W2.9 49 km (30 mi) E of Big Pine, CA
map2.22022/09/25 05:51:3134.034N117.242W16.3 2 km ( 1 mi) SE of Loma Linda, CA
map0.92022/09/25 05:16:2837.408N118.577W10.25 12 km ( 7 mi) WNW of West Bishop, CA
map0.72022/09/25 04:53:2533.871N117.202W7.96 6 km ( 4 mi) ESE of March Air Reserve Base, CA
map0.52022/09/25 04:34:5533.782N116.115W1.8 12 km ( 7 mi) NE of Indio, CA
map1.12022/09/25 04:33:5136.558N121.117W2.41 24 km (15 mi) NE of Soledad, CA
map0.62022/09/25 04:32:2833.787N116.118W3.64 12 km ( 7 mi) NE of Indio, CA
map-0.42022/09/25 04:32:2136.653N116.275W6.4 51 km (32 mi) SE of Beatty, NV
map0.92022/09/25 04:31:5433.780N116.117W1.84 11 km ( 7 mi) NE of Indio, CA
map0.72022/09/25 04:28:4733.783N116.117W2.04 11 km ( 7 mi) NE of Indio, CA
map-0.52022/09/25 04:26:0036.709N116.073W5.0 56 km (35 mi) N of Pahrump, NV
map1.12022/09/25 04:23:2736.556N121.115W1.64 24 km (15 mi) NE of Soledad, CA
map2.52022/09/25 04:18:5236.549N121.109W1.75 24 km (15 mi) NE of Soledad, CA
map1.12022/09/25 04:17:0436.559N121.115W1.44 24 km (15 mi) NE of Soledad, CA
map0.52022/09/25 04:14:2135.718N117.495W2.53 10 km ( 6 mi) SW of Searles Valley, CA
map1.72022/09/25 04:10:1140.708N124.228W18.1 4 km ( 2 mi) WSW of Humboldt Hill, CA
map1.52022/09/25 03:43:3933.779N116.118W1.66 11 km ( 7 mi) NE of Indio, CA
map1.32022/09/25 03:39:3933.313N116.397W11.15 7 km ( 4 mi) NNW of Borrego Springs, CA
map0.12022/09/25 03:15:5340.002N119.546W11.6 42 km (26 mi) NNE of Spanish Springs, NV
map0.62022/09/25 03:15:2333.487N116.507W11.34 17 km (11 mi) ESE of Anza, CA
map0.52022/09/25 03:13:5933.490N116.506W9.12 17 km (11 mi) ESE of Anza, CA
map0.62022/09/25 03:13:3833.492N116.499W10.78 18 km (11 mi) ESE of Anza, CA
map-0.32022/09/25 02:47:0236.669N116.297W9.8 49 km (30 mi) ESE of Beatty, NV
map0.12022/09/25 02:44:5538.786N122.735W1.88 2 km ( 1 mi) ENE of The Geysers, CA
map1.32022/09/25 02:43:0435.841N118.039W11.72 16 km (10 mi) SW of Little Lake, CA
map1.12022/09/25 02:34:0535.745N120.280W6.06 3 km ( 2 mi) NNE of Cholame, CA
map0.92022/09/25 02:33:0738.833N122.817W1.39 8 km ( 5 mi) NW of The Geysers, CA
map0.62022/09/25 02:27:4433.490N116.504W9.65 17 km (11 mi) ESE of Anza, CA
map0.52022/09/25 02:27:0033.780N116.115W1.95 11 km ( 7 mi) NE of Indio, CA
map0.62022/09/25 01:52:3138.822N122.855W2.55 10 km ( 6 mi) WNW of The Geysers, CA
map0.82022/09/25 01:51:0834.033N117.126W4.26 4 km ( 3 mi) S of Mentone, CA
map0.52022/09/25 01:20:4533.491N116.505W10.45 17 km (11 mi) ESE of Anza, CA
map2.02022/09/25 01:15:0538.499N122.294W7.05 12 km ( 8 mi) NNE of Yountville, CA
map0.52022/09/25 01:09:2933.781N116.120W1.86 11 km ( 7 mi) NE of Indio, CA
map0.92022/09/25 01:02:1333.779N116.117W1.42 11 km ( 7 mi) NE of Indio, CA
map0.52022/09/25 01:00:3538.794N122.779W3.81 3 km ( 2 mi) NW of The Geysers, CA
map0.52022/09/25 00:47:4038.818N122.759W1.55 3 km ( 2 mi) W of Cobb, CA
map0.22022/09/25 00:38:2033.654N116.715W14.85 10 km ( 6 mi) S of Idyllwild, CA
map0.72022/09/25 00:23:3238.169N118.173W3.8 56 km (35 mi) SE of Hawthorne, NV
map0.52022/09/24 23:57:1233.679N116.590W12.83 14 km ( 8 mi) ESE of Idyllwild, CA
map0.32022/09/24 23:48:0938.170N117.846W5.8 55 km (34 mi) WNW of Tonopah, NV
map1.52022/09/24 23:24:0435.038N119.078W5.06 17 km (11 mi) NW of Grapevine, CA
map0.62022/09/24 23:21:0433.641N116.686W13.37 10 km ( 6 mi) N of Anza, CA
map0.72022/09/24 22:53:3133.520N116.438W7.13 20 km (12 mi) SW of La Quinta, CA
map0.62022/09/24 22:52:5033.488N116.505W9.47 17 km (11 mi) ESE of Anza, CA
map1.12022/09/24 22:04:0839.990N120.120W8.8 36 km (22 mi) NE of Portola, CA
map1.12022/09/24 21:27:3434.078N118.126W9.97 2 km ( 1 mi) NNW of Monterey Park, CA
map2.12022/09/24 21:11:4035.507N118.389W7.92 13 km ( 8 mi) SE of Bodfish, CA
map0.92022/09/24 21:09:4138.796N122.721W2.35 3 km ( 2 mi) S of Cobb, CA
map1.22022/09/24 21:07:5338.796N122.723W2.31 3 km ( 2 mi) S of Cobb, CA
map0.22022/09/24 20:54:4838.793N122.753W1.35 2 km ( 1 mi) N of The Geysers, CA
map1.22022/09/24 20:49:3836.052N118.090W1.03 13 km ( 8 mi) W of Coso Junction, CA
map1.32022/09/24 20:28:1833.739N116.847W2.39 4 km ( 3 mi) ESE of Valle Vista, CA
map0.82022/09/24 20:18:0738.808N122.796W3.48 5 km ( 3 mi) NW of The Geysers, CA
map1.12022/09/24 20:12:1238.153N117.904W8.9 60 km (37 mi) W of Tonopah, NV
map0.62022/09/24 20:05:2837.549N121.941W4.97 4 km ( 2 mi) E of Fremont, CA
map0.92022/09/24 20:05:2138.287N119.493W4.6 57 km (35 mi) SSW of Smith Valley, NV
map1.22022/09/24 19:46:0837.475N119.311W19.37 34 km (21 mi) ENE of Oakhurst, CA
map2.02022/09/24 19:41:5539.474N121.447W1.54 5 km ( 3 mi) SSE of Oroville East, CA
map0.62022/09/24 19:12:3138.169N118.152W11.3 57 km (35 mi) SE of Hawthorne, NV
map1.32022/09/24 19:12:0136.145N120.145W8.29 7 km ( 5 mi) SSW of Huron, CA
map0.32022/09/24 19:05:3439.071N119.672W6.4 5 km ( 3 mi) ENE of Johnson Lane, NV
map1.12022/09/24 18:17:0733.987N117.001W12.44 5 km ( 3 mi) E of Calimesa, CA
map1.92022/09/24 17:55:3736.593N121.201W7.84 22 km (14 mi) NNE of Soledad, CA
map0.72022/09/24 17:22:4138.779N122.743W0.7 1 km ( 1 mi) E of The Geysers, CA
map1.62022/09/24 17:10:4037.094N115.767W8.7 61 km (38 mi) WSW of Alamo, NV
map0.92022/09/24 17:09:4438.840N122.808W2.39 8 km ( 5 mi) WNW of Cobb, CA
map-0.12022/09/24 16:40:5536.704N116.331W8.9 44 km (27 mi) ESE of Beatty, NV
map1.72022/09/24 16:33:5740.342N121.358W5.76 11 km ( 7 mi) WNW of Chester, CA
map0.92022/09/24 16:14:4234.043N117.234W14.86 3 km ( 2 mi) ESE of Loma Linda, CA
map0.12022/09/24 16:08:5538.788N122.733W1.76 2 km ( 1 mi) ENE of The Geysers, CA
map0.72022/09/24 15:56:2338.154N118.177W7.5 57 km (35 mi) SE of Hawthorne, NV
map1.22022/09/24 15:45:5638.152N118.002W7.9 68 km (42 mi) W of Tonopah, NV
map1.02022/09/24 15:29:0537.388N122.165W6.01 3 km ( 2 mi) WNW of Los Altos Hills, CA
map2.92022/09/24 15:18:1431.215N115.865W2.84 87 km (54 mi) SE of Maneadero, B.C., MX
map0.82022/09/24 15:06:5033.351N116.217W10.44 17 km (10 mi) SW of Oasis, CA
map1.22022/09/24 14:39:3834.051N116.415W8.43 7 km ( 4 mi) SSE of Yucca Valley, CA
map1.92022/09/24 14:32:2633.365N115.787W3.48 5 km ( 3 mi) WNW of Bombay Beach, CA
map0.82022/09/24 14:28:4335.831N117.635W-0.96 6 km ( 4 mi) SSE of Quarry at WRC-CLC (Probable quarry explosion)
map0.92022/09/24 14:22:5637.133N121.522W7.83 9 km ( 6 mi) NE of San Martin, CA
map0.42022/09/24 14:08:3038.810N122.772W1.14 4 km ( 2 mi) NNW of The Geysers, CA
map2.62022/09/24 13:51:0032.157N115.165W24.76 8 km ( 5 mi) S of Alberto Oviedo Mota, B.C., MX
map0.82022/09/24 13:40:4338.804N122.778W3.52 4 km ( 2 mi) NNW of The Geysers, CA
map0.62022/09/24 13:24:5738.841N122.877W2.56 13 km ( 8 mi) NW of The Geysers, CA
map1.82022/09/24 13:15:5233.182N116.062W3.61 8 km ( 5 mi) NE of Ocotillo Wells, CA
map0.82022/09/24 12:58:3535.830N117.626W-0.8 6 km ( 4 mi) SSE of Quarry at WRC-CLC (Probable quarry explosion)
map1.62022/09/24 12:58:2932.885N115.640W19.96 8 km ( 5 mi) WNW of Imperial, CA
map1.22022/09/24 12:57:1736.554N121.113W1.82 24 km (15 mi) NE of Soledad, CA
map0.72022/09/24 12:55:1133.578N116.593W13.64 8 km ( 5 mi) ENE of Anza, CA
map0.92022/09/24 12:53:2138.842N122.825W1.56 9 km ( 6 mi) WNW of Cobb, CA
map1.12022/09/24 12:48:5933.183N116.059W3.63 8 km ( 5 mi) ENE of Ocotillo Wells, CA
map1.22022/09/24 12:47:5033.182N116.059W3.87 8 km ( 5 mi) ENE of Ocotillo Wells, CA
map1.32022/09/24 12:35:0938.159N117.894W7.5 59 km (37 mi) W of Tonopah, NV
MAP4.82022/09/24 12:27:3940.314N124.725W13.08 49 km (30 mi) SW of Ferndale, CA
map1.32022/09/24 12:26:1033.491N116.424W7.79 22 km (14 mi) SSW of La Quinta, CA
map2.32022/09/24 12:20:0738.512N119.534W3.55 34 km (21 mi) SSW of Smith Valley, NV
map0.32022/09/24 12:16:0137.616N118.854W3.18 11 km ( 7 mi) ESE of Mammoth Lakes, CA
map0.32022/09/24 12:15:5133.671N116.711W14.9 8 km ( 5 mi) S of Idyllwild, CA
map1.02022/09/24 12:13:0037.494N118.871W3.41 18 km (11 mi) SSE of Mammoth Lakes, CA
map1.22022/09/24 12:11:4436.044N117.858W2.49 8 km ( 5 mi) E of Coso Junction, CA
map1.32022/09/24 11:58:3733.641N117.984W14.11 6 km ( 4 mi) WNW of Newport Beach, CA
map0.72022/09/24 11:39:1535.826N117.638W-0.97 6 km ( 4 mi) SSE of Quarry at WRC-CLC (Probable quarry explosion)
map0.62022/09/24 11:06:2733.507N116.496W14.17 17 km (11 mi) ESE of Anza, CA
map0.42022/09/24 11:01:4938.822N122.810W2.32 7 km ( 4 mi) NW of The Geysers, CA
map0.42022/09/24 10:59:0936.059N120.641W2.85 26 km (16 mi) NW of Parkfield, CA
map1.32022/09/24 10:55:1935.626N118.412W12.87 6 km ( 4 mi) E of Lake Isabella, CA
map0.42022/09/24 10:54:0836.022N117.765W1.41 16 km (10 mi) NE of Little Lake, CA
map0.52022/09/24 10:53:4436.034N117.773W1.98 16 km (10 mi) E of Coso Junction, CA
map1.02022/09/24 10:53:3036.027N117.770W1.47 16 km (10 mi) NE of Little Lake, CA
map0.82022/09/24 10:43:0036.032N117.770W1.72 16 km (10 mi) E of Coso Junction, CA
map0.92022/09/24 10:40:4137.967N122.151W8 6 km ( 4 mi) SSW of Martinez, CA
map2.02022/09/24 10:33:2634.846N118.900W10.32 3 km ( 2 mi) W of Lebec, CA
map1.12022/09/24 10:27:0336.027N117.770W1.13 16 km (10 mi) NE of Little Lake, CA
map1.42022/09/24 10:09:2636.025N117.766W1.1 16 km (10 mi) NE of Little Lake, CA
map0.52022/09/24 10:08:0238.822N122.799W2.75 6 km ( 4 mi) NW of The Geysers, CA
map1.42022/09/24 10:05:3736.025N117.768W1.95 16 km (10 mi) NE of Little Lake, CA
map1.62022/09/24 10:02:5237.495N118.867W4.48 19 km (12 mi) SSE of Mammoth Lakes, CA
map1.82022/09/24 10:01:5434.005N118.778W12.66 3 km ( 2 mi) E of Malibu, CA
map0.32022/09/24 10:00:1439.874N120.521W8.0 8 km ( 5 mi) NNW of Portola, CA
map0.12022/09/24 09:51:5340.071N119.689W16.7 47 km (29 mi) N of Spanish Springs, NV
map0.92022/09/24 09:44:4934.215N117.592W8.78 10 km ( 6 mi) WSW of Lytle Creek, CA
map0.22022/09/24 09:44:4438.159N118.168W3.4 57 km (35 mi) SE of Hawthorne, NV
map2.22022/09/24 09:40:1134.468N119.252W2.63 2 km ( 1 mi) NNW of Ojai, CA
map0.52022/09/24 09:17:3438.789N122.761W1.69 1 km ( 1 mi) NNW of The Geysers, CA
map1.62022/09/24 09:13:3833.025N116.302W4.56 21 km (13 mi) SW of Ocotillo Wells, CA
map1.32022/09/24 09:12:4835.674N117.550W6.85 13 km ( 8 mi) ENE of Ridgecrest, CA
map1.42022/09/24 09:04:5833.949N118.330W9.91 2 km ( 1 mi) ESE of Inglewood, CA
map0.92022/09/24 08:51:4633.682N116.791W16.11 9 km ( 6 mi) SW of Idyllwild, CA
map0.32022/09/24 08:34:3538.836N122.800W2.08 7 km ( 4 mi) WNW of Cobb, CA